<?xml version="1.0" encoding="UTF-8" standalone="no" ?>
<gpx xmlns="http://www.topografix.com/GPX/1/1" xmlns:xsi="http://www.w3.org/2001/XMLSchema-instance" xsi:schemaLocation="http://www.topografix.com/GPX/1/1 http://www.topografix.com/GPX/1/1/gpx.xsd" version="1.1" creator="VisuGPX - https://www.visugpx.com">
  <metadata>
    <name>Forcella Pin (Quota 2276m)</name>
    <desc><![CDATA[Parto Piazza - Forcella Pin (Quota 2276m) - Ponticello]]></desc>
  </metadata>
  <trk>
    <name><![CDATA[Forcella_Pin_Q_2278_2017-03-04]]></name>
    <trkseg>
      <trkpt lat="46.65653" lon="12.17576">
        <ele>1970.84</ele>
        <time>2017-03-03T08:11:31Z</time>
      </trkpt>
      <trkpt lat="46.65653" lon="12.17578">
        <ele>1968.92</ele>
        <time>2017-03-03T08:11:53Z</time>
      </trkpt>
      <trkpt lat="46.65656" lon="12.17578">
        <ele>1968.92</ele>
        <time>2017-03-03T08:12:23Z</time>
      </trkpt>
      <trkpt lat="46.65656" lon="12.17578">
        <ele>1968.92</ele>
        <time>2017-03-03T08:12:57Z</time>
      </trkpt>
      <trkpt lat="46.65656" lon="12.17575">
        <ele>1968.44</ele>
        <time>2017-03-03T08:13:19Z</time>
      </trkpt>
      <trkpt lat="46.65654" lon="12.17575">
        <ele>1968.92</ele>
        <time>2017-03-03T08:13:40Z</time>
      </trkpt>
      <trkpt lat="46.65653" lon="12.17577">
        <ele>1968.92</ele>
        <time>2017-03-03T08:14:12Z</time>
      </trkpt>
      <trkpt lat="46.65654" lon="12.17574">
        <ele>1968.44</ele>
        <time>2017-03-03T08:14:38Z</time>
      </trkpt>
      <trkpt lat="46.65655" lon="12.17574">
        <ele>1968.44</ele>
        <time>2017-03-03T08:15:27Z</time>
      </trkpt>
      <trkpt lat="46.65656" lon="12.17573">
        <ele>1968.44</ele>
        <time>2017-03-03T08:16:16Z</time>
      </trkpt>
      <trkpt lat="46.65656" lon="12.17572">
        <ele>1968.92</ele>
        <time>2017-03-03T08:16:42Z</time>
      </trkpt>
      <trkpt lat="46.65655" lon="12.17573">
        <ele>1968.92</ele>
        <time>2017-03-03T08:17:16Z</time>
      </trkpt>
      <trkpt lat="46.65655" lon="12.17571">
        <ele>1969.4</ele>
        <time>2017-03-03T08:17:54Z</time>
      </trkpt>
      <trkpt lat="46.65656" lon="12.17571">
        <ele>1969.88</ele>
        <time>2017-03-03T08:18:36Z</time>
      </trkpt>
      <trkpt lat="46.65656" lon="12.17574">
        <ele>1970.36</ele>
        <time>2017-03-03T08:19:29Z</time>
      </trkpt>
      <trkpt lat="46.65656" lon="12.17573">
        <ele>1967.48</ele>
        <time>2017-03-03T08:19:53Z</time>
      </trkpt>
      <trkpt lat="46.65655" lon="12.17573">
        <ele>1970.84</ele>
        <time>2017-03-03T08:19:58Z</time>
      </trkpt>
      <trkpt lat="46.65655" lon="12.17573">
        <ele>1970.36</ele>
        <time>2017-03-03T08:19:59Z</time>
      </trkpt>
      <trkpt lat="46.65655" lon="12.17572">
        <ele>1974.2</ele>
        <time>2017-03-03T08:20:30Z</time>
      </trkpt>
      <trkpt lat="46.65655" lon="12.17572">
        <ele>1973.72</ele>
        <time>2017-03-03T08:20:31Z</time>
      </trkpt>
      <trkpt lat="46.65655" lon="12.17572">
        <ele>1971.8</ele>
        <time>2017-03-03T08:20:33Z</time>
      </trkpt>
      <trkpt lat="46.6565" lon="12.17584">
        <ele>1972.76</ele>
        <time>2017-03-03T08:20:46Z</time>
      </trkpt>
      <trkpt lat="46.65647" lon="12.17596">
        <ele>1973.24</ele>
        <time>2017-03-03T08:21:01Z</time>
      </trkpt>
      <trkpt lat="46.65643" lon="12.17608">
        <ele>1974.2</ele>
        <time>2017-03-03T08:21:13Z</time>
      </trkpt>
      <trkpt lat="46.65643" lon="12.17609">
        <ele>1974.2</ele>
        <time>2017-03-03T08:21:15Z</time>
      </trkpt>
      <trkpt lat="46.6564" lon="12.17624">
        <ele>1975.65</ele>
        <time>2017-03-03T08:21:29Z</time>
      </trkpt>
      <trkpt lat="46.65638" lon="12.17639">
        <ele>1976.61</ele>
        <time>2017-03-03T08:21:42Z</time>
      </trkpt>
      <trkpt lat="46.65634" lon="12.17656">
        <ele>1977.09</ele>
        <time>2017-03-03T08:21:57Z</time>
      </trkpt>
      <trkpt lat="46.65633" lon="12.1766">
        <ele>1977.57</ele>
        <time>2017-03-03T08:22:00Z</time>
      </trkpt>
      <trkpt lat="46.65627" lon="12.17679">
        <ele>1978.53</ele>
        <time>2017-03-03T08:22:14Z</time>
      </trkpt>
      <trkpt lat="46.6562" lon="12.17696">
        <ele>1979.97</ele>
        <time>2017-03-03T08:22:29Z</time>
      </trkpt>
      <trkpt lat="46.65612" lon="12.17708">
        <ele>1980.45</ele>
        <time>2017-03-03T08:22:42Z</time>
      </trkpt>
      <trkpt lat="46.6561" lon="12.17709">
        <ele>1980.45</ele>
        <time>2017-03-03T08:22:44Z</time>
      </trkpt>
      <trkpt lat="46.65609" lon="12.17712">
        <ele>1980.93</ele>
        <time>2017-03-03T08:22:56Z</time>
      </trkpt>
      <trkpt lat="46.65604" lon="12.17716">
        <ele>1981.41</ele>
        <time>2017-03-03T08:23:09Z</time>
      </trkpt>
      <trkpt lat="46.65604" lon="12.17717">
        <ele>1981.41</ele>
        <time>2017-03-03T08:23:10Z</time>
      </trkpt>
      <trkpt lat="46.65589" lon="12.17729">
        <ele>1981.41</ele>
        <time>2017-03-03T08:23:26Z</time>
      </trkpt>
      <trkpt lat="46.65585" lon="12.1773">
        <ele>1980.93</ele>
        <time>2017-03-03T08:23:33Z</time>
      </trkpt>
      <trkpt lat="46.65584" lon="12.17728">
        <ele>1980.45</ele>
        <time>2017-03-03T08:23:34Z</time>
      </trkpt>
      <trkpt lat="46.6558" lon="12.17725">
        <ele>1979.97</ele>
        <time>2017-03-03T08:23:48Z</time>
      </trkpt>
      <trkpt lat="46.6558" lon="12.17725">
        <ele>1979.97</ele>
        <time>2017-03-03T08:24:06Z</time>
      </trkpt>
      <trkpt lat="46.6558" lon="12.17725">
        <ele>1979.49</ele>
        <time>2017-03-03T08:24:26Z</time>
      </trkpt>
      <trkpt lat="46.6558" lon="12.17726">
        <ele>1979.97</ele>
        <time>2017-03-03T08:24:47Z</time>
      </trkpt>
      <trkpt lat="46.65581" lon="12.17728">
        <ele>1979.49</ele>
        <time>2017-03-03T08:25:05Z</time>
      </trkpt>
      <trkpt lat="46.65578" lon="12.17732">
        <ele>1979.97</ele>
        <time>2017-03-03T08:25:18Z</time>
      </trkpt>
      <trkpt lat="46.65576" lon="12.1773">
        <ele>1979.97</ele>
        <time>2017-03-03T08:25:33Z</time>
      </trkpt>
      <trkpt lat="46.65578" lon="12.17732">
        <ele>1980.45</ele>
        <time>2017-03-03T08:25:51Z</time>
      </trkpt>
      <trkpt lat="46.65577" lon="12.1773">
        <ele>1980.45</ele>
        <time>2017-03-03T08:26:10Z</time>
      </trkpt>
      <trkpt lat="46.65572" lon="12.17733">
        <ele>1981.41</ele>
        <time>2017-03-03T08:26:17Z</time>
      </trkpt>
      <trkpt lat="46.65571" lon="12.17734">
        <ele>1980.93</ele>
        <time>2017-03-03T08:26:18Z</time>
      </trkpt>
      <trkpt lat="46.6557" lon="12.17735">
        <ele>1980.93</ele>
        <time>2017-03-03T08:26:19Z</time>
      </trkpt>
      <trkpt lat="46.65568" lon="12.17737">
        <ele>1981.41</ele>
        <time>2017-03-03T08:26:21Z</time>
      </trkpt>
      <trkpt lat="46.65566" lon="12.17739">
        <ele>1981.41</ele>
        <time>2017-03-03T08:26:23Z</time>
      </trkpt>
      <trkpt lat="46.65566" lon="12.17739">
        <ele>1981.41</ele>
        <time>2017-03-03T08:26:24Z</time>
      </trkpt>
      <trkpt lat="46.65565" lon="12.17741">
        <ele>1981.9</ele>
        <time>2017-03-03T08:26:25Z</time>
      </trkpt>
      <trkpt lat="46.65564" lon="12.17742">
        <ele>1981.41</ele>
        <time>2017-03-03T08:26:26Z</time>
      </trkpt>
      <trkpt lat="46.65563" lon="12.17743">
        <ele>1981.9</ele>
        <time>2017-03-03T08:26:27Z</time>
      </trkpt>
      <trkpt lat="46.65549" lon="12.17754">
        <ele>1982.38</ele>
        <time>2017-03-03T08:26:42Z</time>
      </trkpt>
      <trkpt lat="46.65546" lon="12.17755">
        <ele>1982.38</ele>
        <time>2017-03-03T08:26:45Z</time>
      </trkpt>
      <trkpt lat="46.65539" lon="12.17761">
        <ele>1982.38</ele>
        <time>2017-03-03T08:26:58Z</time>
      </trkpt>
      <trkpt lat="46.65531" lon="12.17766">
        <ele>1982.86</ele>
        <time>2017-03-03T08:27:11Z</time>
      </trkpt>
      <trkpt lat="46.65523" lon="12.17771">
        <ele>1983.34</ele>
        <time>2017-03-03T08:27:22Z</time>
      </trkpt>
      <trkpt lat="46.65512" lon="12.17779">
        <ele>1984.78</ele>
        <time>2017-03-03T08:27:36Z</time>
      </trkpt>
      <trkpt lat="46.65511" lon="12.17779">
        <ele>1984.78</ele>
        <time>2017-03-03T08:27:37Z</time>
      </trkpt>
      <trkpt lat="46.65499" lon="12.1779">
        <ele>1985.26</ele>
        <time>2017-03-03T08:27:50Z</time>
      </trkpt>
      <trkpt lat="46.65491" lon="12.17793">
        <ele>1985.74</ele>
        <time>2017-03-03T08:28:03Z</time>
      </trkpt>
      <trkpt lat="46.65489" lon="12.17794">
        <ele>1985.74</ele>
        <time>2017-03-03T08:28:15Z</time>
      </trkpt>
      <trkpt lat="46.6548" lon="12.17804">
        <ele>1986.7</ele>
        <time>2017-03-03T08:28:29Z</time>
      </trkpt>
      <trkpt lat="46.6547" lon="12.17813">
        <ele>1987.66</ele>
        <time>2017-03-03T08:28:42Z</time>
      </trkpt>
      <trkpt lat="46.65459" lon="12.17827">
        <ele>1988.14</ele>
        <time>2017-03-03T08:28:56Z</time>
      </trkpt>
      <trkpt lat="46.65448" lon="12.17839">
        <ele>1988.62</ele>
        <time>2017-03-03T08:29:09Z</time>
      </trkpt>
      <trkpt lat="46.65438" lon="12.17852">
        <ele>1989.1</ele>
        <time>2017-03-03T08:29:23Z</time>
      </trkpt>
      <trkpt lat="46.65428" lon="12.17861">
        <ele>1989.59</ele>
        <time>2017-03-03T08:29:35Z</time>
      </trkpt>
      <trkpt lat="46.65426" lon="12.17864">
        <ele>1989.59</ele>
        <time>2017-03-03T08:29:37Z</time>
      </trkpt>
      <trkpt lat="46.6542" lon="12.17866">
        <ele>1990.07</ele>
        <time>2017-03-03T08:29:44Z</time>
      </trkpt>
      <trkpt lat="46.65415" lon="12.17871">
        <ele>1990.55</ele>
        <time>2017-03-03T08:29:58Z</time>
      </trkpt>
      <trkpt lat="46.65408" lon="12.17876">
        <ele>1991.51</ele>
        <time>2017-03-03T08:30:09Z</time>
      </trkpt>
      <trkpt lat="46.65396" lon="12.17885">
        <ele>1992.47</ele>
        <time>2017-03-03T08:30:23Z</time>
      </trkpt>
      <trkpt lat="46.65388" lon="12.17887">
        <ele>1992.47</ele>
        <time>2017-03-03T08:30:36Z</time>
      </trkpt>
      <trkpt lat="46.65385" lon="12.17888">
        <ele>1991.99</ele>
        <time>2017-03-03T08:30:48Z</time>
      </trkpt>
      <trkpt lat="46.65385" lon="12.17894">
        <ele>1991.51</ele>
        <time>2017-03-03T08:31:02Z</time>
      </trkpt>
      <trkpt lat="46.65383" lon="12.17896">
        <ele>1992.47</ele>
        <time>2017-03-03T08:31:18Z</time>
      </trkpt>
      <trkpt lat="46.65375" lon="12.17898">
        <ele>1992.47</ele>
        <time>2017-03-03T08:31:33Z</time>
      </trkpt>
      <trkpt lat="46.65364" lon="12.179">
        <ele>1993.43</ele>
        <time>2017-03-03T08:31:46Z</time>
      </trkpt>
      <trkpt lat="46.65361" lon="12.179">
        <ele>1991.03</ele>
        <time>2017-03-03T08:32:03Z</time>
      </trkpt>
      <trkpt lat="46.65357" lon="12.17901">
        <ele>1990.55</ele>
        <time>2017-03-03T08:32:17Z</time>
      </trkpt>
      <trkpt lat="46.65353" lon="12.17898">
        <ele>1990.07</ele>
        <time>2017-03-03T08:32:32Z</time>
      </trkpt>
      <trkpt lat="46.65342" lon="12.17897">
        <ele>1990.07</ele>
        <time>2017-03-03T08:32:45Z</time>
      </trkpt>
      <trkpt lat="46.65333" lon="12.17896">
        <ele>1990.07</ele>
        <time>2017-03-03T08:33:00Z</time>
      </trkpt>
      <trkpt lat="46.65325" lon="12.17893">
        <ele>1989.59</ele>
        <time>2017-03-03T08:33:13Z</time>
      </trkpt>
      <trkpt lat="46.65325" lon="12.17891">
        <ele>1989.59</ele>
        <time>2017-03-03T08:33:34Z</time>
      </trkpt>
      <trkpt lat="46.6531" lon="12.1788">
        <ele>1989.1</ele>
        <time>2017-03-03T08:33:48Z</time>
      </trkpt>
      <trkpt lat="46.653" lon="12.17874">
        <ele>1985.74</ele>
        <time>2017-03-03T08:33:58Z</time>
      </trkpt>
      <trkpt lat="46.653" lon="12.17872">
        <ele>1985.74</ele>
        <time>2017-03-03T08:34:11Z</time>
      </trkpt>
      <trkpt lat="46.65298" lon="12.17871">
        <ele>1985.26</ele>
        <time>2017-03-03T08:34:12Z</time>
      </trkpt>
      <trkpt lat="46.65296" lon="12.17869">
        <ele>1985.26</ele>
        <time>2017-03-03T08:34:13Z</time>
      </trkpt>
      <trkpt lat="46.65294" lon="12.17867">
        <ele>1984.78</ele>
        <time>2017-03-03T08:34:14Z</time>
      </trkpt>
      <trkpt lat="46.65292" lon="12.17865">
        <ele>1984.3</ele>
        <time>2017-03-03T08:34:15Z</time>
      </trkpt>
      <trkpt lat="46.65278" lon="12.17852">
        <ele>1981.9</ele>
        <time>2017-03-03T08:34:20Z</time>
      </trkpt>
      <trkpt lat="46.65273" lon="12.1785">
        <ele>1980.45</ele>
        <time>2017-03-03T08:34:31Z</time>
      </trkpt>
      <trkpt lat="46.65264" lon="12.17844">
        <ele>1979.49</ele>
        <time>2017-03-03T08:34:45Z</time>
      </trkpt>
      <trkpt lat="46.65248" lon="12.17824">
        <ele>1976.13</ele>
        <time>2017-03-03T08:34:52Z</time>
      </trkpt>
      <trkpt lat="46.65242" lon="12.17817">
        <ele>1975.17</ele>
        <time>2017-03-03T08:34:54Z</time>
      </trkpt>
      <trkpt lat="46.6523" lon="12.17807">
        <ele>1975.17</ele>
        <time>2017-03-03T08:35:03Z</time>
      </trkpt>
      <trkpt lat="46.65228" lon="12.17807">
        <ele>1975.65</ele>
        <time>2017-03-03T08:35:05Z</time>
      </trkpt>
      <trkpt lat="46.65219" lon="12.17804">
        <ele>1976.13</ele>
        <time>2017-03-03T08:35:14Z</time>
      </trkpt>
      <trkpt lat="46.65212" lon="12.17808">
        <ele>1975.65</ele>
        <time>2017-03-03T08:35:20Z</time>
      </trkpt>
      <trkpt lat="46.65211" lon="12.17808">
        <ele>1975.17</ele>
        <time>2017-03-03T08:35:21Z</time>
      </trkpt>
      <trkpt lat="46.65192" lon="12.17815">
        <ele>1974.2</ele>
        <time>2017-03-03T08:35:35Z</time>
      </trkpt>
      <trkpt lat="46.65173" lon="12.17822">
        <ele>1973.24</ele>
        <time>2017-03-03T08:35:48Z</time>
      </trkpt>
      <trkpt lat="46.65159" lon="12.17825">
        <ele>1973.72</ele>
        <time>2017-03-03T08:35:59Z</time>
      </trkpt>
      <trkpt lat="46.65157" lon="12.17825">
        <ele>1973.24</ele>
        <time>2017-03-03T08:36:00Z</time>
      </trkpt>
      <trkpt lat="46.65156" lon="12.17825">
        <ele>1973.24</ele>
        <time>2017-03-03T08:36:01Z</time>
      </trkpt>
      <trkpt lat="46.65155" lon="12.17825">
        <ele>1973.24</ele>
        <time>2017-03-03T08:36:02Z</time>
      </trkpt>
      <trkpt lat="46.65154" lon="12.17826">
        <ele>1972.76</ele>
        <time>2017-03-03T08:36:03Z</time>
      </trkpt>
      <trkpt lat="46.65153" lon="12.17826">
        <ele>1972.76</ele>
        <time>2017-03-03T08:36:04Z</time>
      </trkpt>
      <trkpt lat="46.65143" lon="12.17831">
        <ele>1971.8</ele>
        <time>2017-03-03T08:36:14Z</time>
      </trkpt>
      <trkpt lat="46.65141" lon="12.17831">
        <ele>1971.32</ele>
        <time>2017-03-03T08:36:17Z</time>
      </trkpt>
      <trkpt lat="46.6514" lon="12.1783">
        <ele>1971.8</ele>
        <time>2017-03-03T08:36:18Z</time>
      </trkpt>
      <trkpt lat="46.65139" lon="12.1783">
        <ele>1971.8</ele>
        <time>2017-03-03T08:36:19Z</time>
      </trkpt>
      <trkpt lat="46.65138" lon="12.1783">
        <ele>1971.8</ele>
        <time>2017-03-03T08:36:20Z</time>
      </trkpt>
      <trkpt lat="46.65131" lon="12.17828">
        <ele>1971.32</ele>
        <time>2017-03-03T08:36:30Z</time>
      </trkpt>
      <trkpt lat="46.6513" lon="12.17828">
        <ele>1971.32</ele>
        <time>2017-03-03T08:36:31Z</time>
      </trkpt>
      <trkpt lat="46.65129" lon="12.17828">
        <ele>1971.32</ele>
        <time>2017-03-03T08:36:32Z</time>
      </trkpt>
      <trkpt lat="46.65127" lon="12.17828">
        <ele>1971.32</ele>
        <time>2017-03-03T08:36:33Z</time>
      </trkpt>
      <trkpt lat="46.65126" lon="12.17827">
        <ele>1970.84</ele>
        <time>2017-03-03T08:36:34Z</time>
      </trkpt>
      <trkpt lat="46.65123" lon="12.17827">
        <ele>1970.84</ele>
        <time>2017-03-03T08:36:46Z</time>
      </trkpt>
      <trkpt lat="46.65116" lon="12.17821">
        <ele>1971.8</ele>
        <time>2017-03-03T08:36:58Z</time>
      </trkpt>
      <trkpt lat="46.65112" lon="12.17821">
        <ele>1972.76</ele>
        <time>2017-03-03T08:37:06Z</time>
      </trkpt>
      <trkpt lat="46.65106" lon="12.1782">
        <ele>1973.24</ele>
        <time>2017-03-03T08:37:16Z</time>
      </trkpt>
      <trkpt lat="46.65102" lon="12.1782">
        <ele>1974.2</ele>
        <time>2017-03-03T08:37:21Z</time>
      </trkpt>
      <trkpt lat="46.65092" lon="12.17817">
        <ele>1975.65</ele>
        <time>2017-03-03T08:37:34Z</time>
      </trkpt>
      <trkpt lat="46.65081" lon="12.17812">
        <ele>1979.01</ele>
        <time>2017-03-03T08:37:47Z</time>
      </trkpt>
      <trkpt lat="46.65071" lon="12.17812">
        <ele>1979.49</ele>
        <time>2017-03-03T08:38:00Z</time>
      </trkpt>
      <trkpt lat="46.65064" lon="12.1781">
        <ele>1980.45</ele>
        <time>2017-03-03T08:38:08Z</time>
      </trkpt>
      <trkpt lat="46.65055" lon="12.17808">
        <ele>1982.38</ele>
        <time>2017-03-03T08:38:22Z</time>
      </trkpt>
      <trkpt lat="46.65049" lon="12.17804">
        <ele>1982.86</ele>
        <time>2017-03-03T08:38:31Z</time>
      </trkpt>
      <trkpt lat="46.65046" lon="12.17803">
        <ele>1980.93</ele>
        <time>2017-03-03T08:38:37Z</time>
      </trkpt>
      <trkpt lat="46.65045" lon="12.17804">
        <ele>1983.34</ele>
        <time>2017-03-03T08:38:51Z</time>
      </trkpt>
      <trkpt lat="46.65034" lon="12.17801">
        <ele>1983.34</ele>
        <time>2017-03-03T08:39:03Z</time>
      </trkpt>
      <trkpt lat="46.65021" lon="12.17798">
        <ele>1983.82</ele>
        <time>2017-03-03T08:39:15Z</time>
      </trkpt>
      <trkpt lat="46.65012" lon="12.17796">
        <ele>1984.3</ele>
        <time>2017-03-03T08:39:28Z</time>
      </trkpt>
      <trkpt lat="46.65004" lon="12.17789">
        <ele>1986.7</ele>
        <time>2017-03-03T08:39:42Z</time>
      </trkpt>
      <trkpt lat="46.65001" lon="12.17784">
        <ele>1989.59</ele>
        <time>2017-03-03T08:39:51Z</time>
      </trkpt>
      <trkpt lat="46.64998" lon="12.17776">
        <ele>1991.03</ele>
        <time>2017-03-03T08:40:05Z</time>
      </trkpt>
      <trkpt lat="46.64991" lon="12.17762">
        <ele>1993.43</ele>
        <time>2017-03-03T08:40:21Z</time>
      </trkpt>
      <trkpt lat="46.64988" lon="12.17756">
        <ele>1994.39</ele>
        <time>2017-03-03T08:40:28Z</time>
      </trkpt>
      <trkpt lat="46.64988" lon="12.17755">
        <ele>1994.39</ele>
        <time>2017-03-03T08:40:29Z</time>
      </trkpt>
      <trkpt lat="46.64986" lon="12.17751">
        <ele>1994.87</ele>
        <time>2017-03-03T08:40:41Z</time>
      </trkpt>
      <trkpt lat="46.64986" lon="12.1775">
        <ele>1994.39</ele>
        <time>2017-03-03T08:40:54Z</time>
      </trkpt>
      <trkpt lat="46.6498" lon="12.17737">
        <ele>1993.91</ele>
        <time>2017-03-03T08:41:14Z</time>
      </trkpt>
      <trkpt lat="46.64979" lon="12.17736">
        <ele>1993.91</ele>
        <time>2017-03-03T08:41:15Z</time>
      </trkpt>
      <trkpt lat="46.64972" lon="12.17733">
        <ele>1993.91</ele>
        <time>2017-03-03T08:41:25Z</time>
      </trkpt>
      <trkpt lat="46.64967" lon="12.17724">
        <ele>1993.91</ele>
        <time>2017-03-03T08:41:39Z</time>
      </trkpt>
      <trkpt lat="46.6496" lon="12.17717">
        <ele>1993.91</ele>
        <time>2017-03-03T08:41:50Z</time>
      </trkpt>
      <trkpt lat="46.64956" lon="12.17711">
        <ele>1993.43</ele>
        <time>2017-03-03T08:42:03Z</time>
      </trkpt>
      <trkpt lat="46.64954" lon="12.17686">
        <ele>1991.99</ele>
        <time>2017-03-03T08:42:15Z</time>
      </trkpt>
      <trkpt lat="46.64953" lon="12.17666">
        <ele>1991.99</ele>
        <time>2017-03-03T08:42:29Z</time>
      </trkpt>
      <trkpt lat="46.64954" lon="12.17653">
        <ele>1991.99</ele>
        <time>2017-03-03T08:42:42Z</time>
      </trkpt>
      <trkpt lat="46.64951" lon="12.17634">
        <ele>1991.99</ele>
        <time>2017-03-03T08:42:55Z</time>
      </trkpt>
      <trkpt lat="46.64949" lon="12.17611">
        <ele>1991.99</ele>
        <time>2017-03-03T08:43:08Z</time>
      </trkpt>
      <trkpt lat="46.64949" lon="12.17608">
        <ele>1991.99</ele>
        <time>2017-03-03T08:43:10Z</time>
      </trkpt>
      <trkpt lat="46.64948" lon="12.17596">
        <ele>1992.47</ele>
        <time>2017-03-03T08:43:18Z</time>
      </trkpt>
      <trkpt lat="46.64948" lon="12.17588">
        <ele>1992.47</ele>
        <time>2017-03-03T08:43:23Z</time>
      </trkpt>
      <trkpt lat="46.64955" lon="12.17567">
        <ele>1991.51</ele>
        <time>2017-03-03T08:43:35Z</time>
      </trkpt>
      <trkpt lat="46.6496" lon="12.17556">
        <ele>1991.51</ele>
        <time>2017-03-03T08:43:43Z</time>
      </trkpt>
      <trkpt lat="46.64961" lon="12.17554">
        <ele>1991.51</ele>
        <time>2017-03-03T08:43:45Z</time>
      </trkpt>
      <trkpt lat="46.64965" lon="12.17541">
        <ele>1991.51</ele>
        <time>2017-03-03T08:43:58Z</time>
      </trkpt>
      <trkpt lat="46.64959" lon="12.17538">
        <ele>1991.99</ele>
        <time>2017-03-03T08:44:11Z</time>
      </trkpt>
      <trkpt lat="46.64964" lon="12.17537">
        <ele>1991.99</ele>
        <time>2017-03-03T08:44:24Z</time>
      </trkpt>
      <trkpt lat="46.64977" lon="12.17515">
        <ele>1991.03</ele>
        <time>2017-03-03T08:44:38Z</time>
      </trkpt>
      <trkpt lat="46.64977" lon="12.17511">
        <ele>1991.03</ele>
        <time>2017-03-03T08:44:40Z</time>
      </trkpt>
      <trkpt lat="46.64982" lon="12.17483">
        <ele>1990.55</ele>
        <time>2017-03-03T08:44:54Z</time>
      </trkpt>
      <trkpt lat="46.64983" lon="12.17478">
        <ele>1990.55</ele>
        <time>2017-03-03T08:44:57Z</time>
      </trkpt>
      <trkpt lat="46.64984" lon="12.17459">
        <ele>1991.03</ele>
        <time>2017-03-03T08:45:12Z</time>
      </trkpt>
      <trkpt lat="46.64984" lon="12.17454">
        <ele>1991.03</ele>
        <time>2017-03-03T08:45:14Z</time>
      </trkpt>
      <trkpt lat="46.64975" lon="12.17442">
        <ele>1990.55</ele>
        <time>2017-03-03T08:45:27Z</time>
      </trkpt>
      <trkpt lat="46.64965" lon="12.17432">
        <ele>1992.95</ele>
        <time>2017-03-03T08:45:41Z</time>
      </trkpt>
      <trkpt lat="46.64956" lon="12.17423">
        <ele>1995.35</ele>
        <time>2017-03-03T08:45:55Z</time>
      </trkpt>
      <trkpt lat="46.64956" lon="12.1742">
        <ele>1992.95</ele>
        <time>2017-03-03T08:46:09Z</time>
      </trkpt>
      <trkpt lat="46.64953" lon="12.17415">
        <ele>1992.95</ele>
        <time>2017-03-03T08:46:21Z</time>
      </trkpt>
      <trkpt lat="46.64953" lon="12.17419">
        <ele>1991.99</ele>
        <time>2017-03-03T08:46:38Z</time>
      </trkpt>
      <trkpt lat="46.64948" lon="12.17417">
        <ele>1991.99</ele>
        <time>2017-03-03T08:46:56Z</time>
      </trkpt>
      <trkpt lat="46.64947" lon="12.17416">
        <ele>1991.51</ele>
        <time>2017-03-03T08:46:57Z</time>
      </trkpt>
      <trkpt lat="46.64941" lon="12.17409">
        <ele>1990.55</ele>
        <time>2017-03-03T08:47:02Z</time>
      </trkpt>
      <trkpt lat="46.64934" lon="12.17394">
        <ele>1987.18</ele>
        <time>2017-03-03T08:47:11Z</time>
      </trkpt>
      <trkpt lat="46.64927" lon="12.1738">
        <ele>1984.78</ele>
        <time>2017-03-03T08:47:23Z</time>
      </trkpt>
      <trkpt lat="46.64924" lon="12.17375">
        <ele>1984.3</ele>
        <time>2017-03-03T08:47:43Z</time>
      </trkpt>
      <trkpt lat="46.64917" lon="12.1737">
        <ele>1982.86</ele>
        <time>2017-03-03T08:48:01Z</time>
      </trkpt>
      <trkpt lat="46.64916" lon="12.17369">
        <ele>1982.38</ele>
        <time>2017-03-03T08:48:02Z</time>
      </trkpt>
      <trkpt lat="46.64915" lon="12.17369">
        <ele>1982.38</ele>
        <time>2017-03-03T08:48:03Z</time>
      </trkpt>
      <trkpt lat="46.64902" lon="12.1737">
        <ele>1978.53</ele>
        <time>2017-03-03T08:48:09Z</time>
      </trkpt>
      <trkpt lat="46.64889" lon="12.17367">
        <ele>1975.17</ele>
        <time>2017-03-03T08:48:13Z</time>
      </trkpt>
      <trkpt lat="46.64879" lon="12.17361">
        <ele>1971.32</ele>
        <time>2017-03-03T08:48:17Z</time>
      </trkpt>
      <trkpt lat="46.6487" lon="12.17355">
        <ele>1968.44</ele>
        <time>2017-03-03T08:48:21Z</time>
      </trkpt>
      <trkpt lat="46.64868" lon="12.17354">
        <ele>1967.48</ele>
        <time>2017-03-03T08:48:23Z</time>
      </trkpt>
      <trkpt lat="46.64859" lon="12.17349">
        <ele>1966.03</ele>
        <time>2017-03-03T08:48:29Z</time>
      </trkpt>
      <trkpt lat="46.64844" lon="12.17346">
        <ele>1964.11</ele>
        <time>2017-03-03T08:48:40Z</time>
      </trkpt>
      <trkpt lat="46.64835" lon="12.17343">
        <ele>1963.15</ele>
        <time>2017-03-03T08:48:49Z</time>
      </trkpt>
      <trkpt lat="46.64819" lon="12.17346">
        <ele>1960.75</ele>
        <time>2017-03-03T08:49:04Z</time>
      </trkpt>
      <trkpt lat="46.64815" lon="12.17347">
        <ele>1960.27</ele>
        <time>2017-03-03T08:49:18Z</time>
      </trkpt>
      <trkpt lat="46.64814" lon="12.17349">
        <ele>1960.27</ele>
        <time>2017-03-03T08:49:36Z</time>
      </trkpt>
      <trkpt lat="46.6481" lon="12.17347">
        <ele>1960.27</ele>
        <time>2017-03-03T08:49:48Z</time>
      </trkpt>
      <trkpt lat="46.64802" lon="12.1734">
        <ele>1959.78</ele>
        <time>2017-03-03T08:49:55Z</time>
      </trkpt>
      <trkpt lat="46.64797" lon="12.17322">
        <ele>1960.27</ele>
        <time>2017-03-03T08:50:08Z</time>
      </trkpt>
      <trkpt lat="46.64796" lon="12.17307">
        <ele>1963.63</ele>
        <time>2017-03-03T08:50:21Z</time>
      </trkpt>
      <trkpt lat="46.64802" lon="12.17294">
        <ele>1966.03</ele>
        <time>2017-03-03T08:50:35Z</time>
      </trkpt>
      <trkpt lat="46.64805" lon="12.17289">
        <ele>1966.51</ele>
        <time>2017-03-03T08:50:47Z</time>
      </trkpt>
      <trkpt lat="46.64806" lon="12.17292">
        <ele>1967.48</ele>
        <time>2017-03-03T08:51:01Z</time>
      </trkpt>
      <trkpt lat="46.64805" lon="12.17289">
        <ele>1966.99</ele>
        <time>2017-03-03T08:51:13Z</time>
      </trkpt>
      <trkpt lat="46.64807" lon="12.1728">
        <ele>1966.51</ele>
        <time>2017-03-03T08:51:25Z</time>
      </trkpt>
      <trkpt lat="46.64808" lon="12.17278">
        <ele>1966.03</ele>
        <time>2017-03-03T08:51:43Z</time>
      </trkpt>
      <trkpt lat="46.64807" lon="12.17271">
        <ele>1964.59</ele>
        <time>2017-03-03T08:51:48Z</time>
      </trkpt>
      <trkpt lat="46.64802" lon="12.17265">
        <ele>1964.11</ele>
        <time>2017-03-03T08:52:04Z</time>
      </trkpt>
      <trkpt lat="46.64794" lon="12.17248">
        <ele>1960.75</ele>
        <time>2017-03-03T08:52:16Z</time>
      </trkpt>
      <trkpt lat="46.6479" lon="12.17234">
        <ele>1957.38</ele>
        <time>2017-03-03T08:52:21Z</time>
      </trkpt>
      <trkpt lat="46.64783" lon="12.17221">
        <ele>1954.5</ele>
        <time>2017-03-03T08:52:29Z</time>
      </trkpt>
      <trkpt lat="46.64769" lon="12.17202">
        <ele>1951.61</ele>
        <time>2017-03-03T08:52:38Z</time>
      </trkpt>
      <trkpt lat="46.64766" lon="12.17196">
        <ele>1950.65</ele>
        <time>2017-03-03T08:52:41Z</time>
      </trkpt>
      <trkpt lat="46.64764" lon="12.1719">
        <ele>1950.17</ele>
        <time>2017-03-03T08:52:53Z</time>
      </trkpt>
      <trkpt lat="46.64758" lon="12.17176">
        <ele>1948.25</ele>
        <time>2017-03-03T08:53:08Z</time>
      </trkpt>
      <trkpt lat="46.64759" lon="12.17174">
        <ele>1948.73</ele>
        <time>2017-03-03T08:53:20Z</time>
      </trkpt>
      <trkpt lat="46.64758" lon="12.17174">
        <ele>1948.73</ele>
        <time>2017-03-03T08:53:44Z</time>
      </trkpt>
      <trkpt lat="46.64759" lon="12.17179">
        <ele>1948.25</ele>
        <time>2017-03-03T08:53:53Z</time>
      </trkpt>
      <trkpt lat="46.64759" lon="12.17181">
        <ele>1948.25</ele>
        <time>2017-03-03T08:54:03Z</time>
      </trkpt>
      <trkpt lat="46.64757" lon="12.17178">
        <ele>1948.73</ele>
        <time>2017-03-03T08:54:10Z</time>
      </trkpt>
      <trkpt lat="46.64751" lon="12.17169">
        <ele>1950.17</ele>
        <time>2017-03-03T08:54:22Z</time>
      </trkpt>
      <trkpt lat="46.6475" lon="12.17168">
        <ele>1950.17</ele>
        <time>2017-03-03T08:54:23Z</time>
      </trkpt>
      <trkpt lat="46.64742" lon="12.17159">
        <ele>1951.61</ele>
        <time>2017-03-03T08:54:34Z</time>
      </trkpt>
      <trkpt lat="46.64736" lon="12.17151">
        <ele>1953.06</ele>
        <time>2017-03-03T08:54:45Z</time>
      </trkpt>
      <trkpt lat="46.64729" lon="12.17141">
        <ele>1955.46</ele>
        <time>2017-03-03T08:55:01Z</time>
      </trkpt>
      <trkpt lat="46.64726" lon="12.17131">
        <ele>1957.86</ele>
        <time>2017-03-03T08:55:16Z</time>
      </trkpt>
      <trkpt lat="46.64726" lon="12.17124">
        <ele>1959.78</ele>
        <time>2017-03-03T08:55:31Z</time>
      </trkpt>
      <trkpt lat="46.64721" lon="12.17114">
        <ele>1962.19</ele>
        <time>2017-03-03T08:55:46Z</time>
      </trkpt>
      <trkpt lat="46.64717" lon="12.17108">
        <ele>1966.99</ele>
        <time>2017-03-03T08:56:01Z</time>
      </trkpt>
      <trkpt lat="46.64709" lon="12.17099">
        <ele>1965.55</ele>
        <time>2017-03-03T08:56:17Z</time>
      </trkpt>
      <trkpt lat="46.64705" lon="12.17088">
        <ele>1966.03</ele>
        <time>2017-03-03T08:56:32Z</time>
      </trkpt>
      <trkpt lat="46.64707" lon="12.17093">
        <ele>1966.03</ele>
        <time>2017-03-03T08:56:54Z</time>
      </trkpt>
      <trkpt lat="46.64706" lon="12.17087">
        <ele>1966.51</ele>
        <time>2017-03-03T08:57:06Z</time>
      </trkpt>
      <trkpt lat="46.64703" lon="12.17078">
        <ele>1967.96</ele>
        <time>2017-03-03T08:57:34Z</time>
      </trkpt>
      <trkpt lat="46.64696" lon="12.17066">
        <ele>1969.88</ele>
        <time>2017-03-03T08:57:48Z</time>
      </trkpt>
      <trkpt lat="46.64695" lon="12.17065">
        <ele>1970.36</ele>
        <time>2017-03-03T08:57:49Z</time>
      </trkpt>
      <trkpt lat="46.64687" lon="12.17052">
        <ele>1974.2</ele>
        <time>2017-03-03T08:58:02Z</time>
      </trkpt>
      <trkpt lat="46.64683" lon="12.17039">
        <ele>1974.2</ele>
        <time>2017-03-03T08:58:15Z</time>
      </trkpt>
      <trkpt lat="46.64677" lon="12.17029">
        <ele>1976.13</ele>
        <time>2017-03-03T08:58:27Z</time>
      </trkpt>
      <trkpt lat="46.64674" lon="12.17025">
        <ele>1976.13</ele>
        <time>2017-03-03T08:58:35Z</time>
      </trkpt>
      <trkpt lat="46.64664" lon="12.17018">
        <ele>1976.61</ele>
        <time>2017-03-03T08:58:48Z</time>
      </trkpt>
      <trkpt lat="46.64655" lon="12.17013">
        <ele>1977.57</ele>
        <time>2017-03-03T08:58:59Z</time>
      </trkpt>
      <trkpt lat="46.64644" lon="12.17008">
        <ele>1978.05</ele>
        <time>2017-03-03T08:59:12Z</time>
      </trkpt>
      <trkpt lat="46.64637" lon="12.16999">
        <ele>1979.49</ele>
        <time>2017-03-03T08:59:26Z</time>
      </trkpt>
      <trkpt lat="46.64631" lon="12.16986">
        <ele>1980.45</ele>
        <time>2017-03-03T08:59:41Z</time>
      </trkpt>
      <trkpt lat="46.64626" lon="12.16983">
        <ele>1980.93</ele>
        <time>2017-03-03T08:59:53Z</time>
      </trkpt>
      <trkpt lat="46.64626" lon="12.16981">
        <ele>1981.41</ele>
        <time>2017-03-03T09:00:04Z</time>
      </trkpt>
      <trkpt lat="46.64626" lon="12.16978">
        <ele>1980.93</ele>
        <time>2017-03-03T09:00:21Z</time>
      </trkpt>
      <trkpt lat="46.64625" lon="12.16966">
        <ele>1981.41</ele>
        <time>2017-03-03T09:00:36Z</time>
      </trkpt>
      <trkpt lat="46.6462" lon="12.16952">
        <ele>1981.9</ele>
        <time>2017-03-03T09:00:49Z</time>
      </trkpt>
      <trkpt lat="46.64617" lon="12.16942">
        <ele>1982.86</ele>
        <time>2017-03-03T09:01:02Z</time>
      </trkpt>
      <trkpt lat="46.64617" lon="12.16941">
        <ele>1982.86</ele>
        <time>2017-03-03T09:01:18Z</time>
      </trkpt>
      <trkpt lat="46.64607" lon="12.16926">
        <ele>1984.78</ele>
        <time>2017-03-03T09:01:34Z</time>
      </trkpt>
      <trkpt lat="46.64606" lon="12.16925">
        <ele>1984.78</ele>
        <time>2017-03-03T09:01:36Z</time>
      </trkpt>
      <trkpt lat="46.646" lon="12.16911">
        <ele>1985.26</ele>
        <time>2017-03-03T09:01:50Z</time>
      </trkpt>
      <trkpt lat="46.64596" lon="12.16901">
        <ele>1988.62</ele>
        <time>2017-03-03T09:02:04Z</time>
      </trkpt>
      <trkpt lat="46.64591" lon="12.16887">
        <ele>1987.66</ele>
        <time>2017-03-03T09:02:19Z</time>
      </trkpt>
      <trkpt lat="46.64591" lon="12.16882">
        <ele>1987.66</ele>
        <time>2017-03-03T09:02:35Z</time>
      </trkpt>
      <trkpt lat="46.6459" lon="12.16881">
        <ele>1987.66</ele>
        <time>2017-03-03T09:02:47Z</time>
      </trkpt>
      <trkpt lat="46.6459" lon="12.16879">
        <ele>1987.66</ele>
        <time>2017-03-03T09:03:05Z</time>
      </trkpt>
      <trkpt lat="46.64591" lon="12.16879">
        <ele>1987.66</ele>
        <time>2017-03-03T09:03:23Z</time>
      </trkpt>
      <trkpt lat="46.64592" lon="12.16881">
        <ele>1988.14</ele>
        <time>2017-03-03T09:03:34Z</time>
      </trkpt>
      <trkpt lat="46.64589" lon="12.16881">
        <ele>1987.66</ele>
        <time>2017-03-03T09:03:49Z</time>
      </trkpt>
      <trkpt lat="46.64589" lon="12.16886">
        <ele>1987.66</ele>
        <time>2017-03-03T09:03:59Z</time>
      </trkpt>
      <trkpt lat="46.64591" lon="12.16898">
        <ele>1987.66</ele>
        <time>2017-03-03T09:04:13Z</time>
      </trkpt>
      <trkpt lat="46.64591" lon="12.16895">
        <ele>1987.66</ele>
        <time>2017-03-03T09:04:26Z</time>
      </trkpt>
      <trkpt lat="46.64593" lon="12.16896">
        <ele>1987.66</ele>
        <time>2017-03-03T09:04:38Z</time>
      </trkpt>
      <trkpt lat="46.64588" lon="12.16895">
        <ele>1986.7</ele>
        <time>2017-03-03T09:04:59Z</time>
      </trkpt>
      <trkpt lat="46.64591" lon="12.16897">
        <ele>1986.7</ele>
        <time>2017-03-03T09:05:26Z</time>
      </trkpt>
      <trkpt lat="46.64596" lon="12.16893">
        <ele>1987.18</ele>
        <time>2017-03-03T09:06:09Z</time>
      </trkpt>
      <trkpt lat="46.64592" lon="12.16898">
        <ele>1987.18</ele>
        <time>2017-03-03T09:06:37Z</time>
      </trkpt>
      <trkpt lat="46.64591" lon="12.169">
        <ele>1987.18</ele>
        <time>2017-03-03T09:06:55Z</time>
      </trkpt>
      <trkpt lat="46.6459" lon="12.16893">
        <ele>1988.14</ele>
        <time>2017-03-03T09:07:07Z</time>
      </trkpt>
      <trkpt lat="46.64585" lon="12.16879">
        <ele>1988.14</ele>
        <time>2017-03-03T09:07:20Z</time>
      </trkpt>
      <trkpt lat="46.64579" lon="12.16871">
        <ele>1986.7</ele>
        <time>2017-03-03T09:07:29Z</time>
      </trkpt>
      <trkpt lat="46.64566" lon="12.16862">
        <ele>1984.78</ele>
        <time>2017-03-03T09:07:43Z</time>
      </trkpt>
      <trkpt lat="46.64557" lon="12.16856">
        <ele>1985.26</ele>
        <time>2017-03-03T09:07:56Z</time>
      </trkpt>
      <trkpt lat="46.64549" lon="12.16855">
        <ele>1986.7</ele>
        <time>2017-03-03T09:08:12Z</time>
      </trkpt>
      <trkpt lat="46.64538" lon="12.16852">
        <ele>1988.14</ele>
        <time>2017-03-03T09:08:27Z</time>
      </trkpt>
      <trkpt lat="46.6453" lon="12.16853">
        <ele>1990.07</ele>
        <time>2017-03-03T09:08:44Z</time>
      </trkpt>
      <trkpt lat="46.64521" lon="12.16848">
        <ele>1991.99</ele>
        <time>2017-03-03T09:08:59Z</time>
      </trkpt>
      <trkpt lat="46.64512" lon="12.1684">
        <ele>1993.91</ele>
        <time>2017-03-03T09:09:17Z</time>
      </trkpt>
      <trkpt lat="46.64504" lon="12.16834">
        <ele>1994.87</ele>
        <time>2017-03-03T09:09:30Z</time>
      </trkpt>
      <trkpt lat="46.64495" lon="12.16832">
        <ele>1996.32</ele>
        <time>2017-03-03T09:09:46Z</time>
      </trkpt>
      <trkpt lat="46.64488" lon="12.16828">
        <ele>1999.2</ele>
        <time>2017-03-03T09:10:04Z</time>
      </trkpt>
      <trkpt lat="46.6448" lon="12.16817">
        <ele>2001.12</ele>
        <time>2017-03-03T09:10:21Z</time>
      </trkpt>
      <trkpt lat="46.64475" lon="12.16816">
        <ele>2002.56</ele>
        <time>2017-03-03T09:10:35Z</time>
      </trkpt>
      <trkpt lat="46.64468" lon="12.16812">
        <ele>2004.49</ele>
        <time>2017-03-03T09:10:51Z</time>
      </trkpt>
      <trkpt lat="46.64463" lon="12.16808">
        <ele>2006.41</ele>
        <time>2017-03-03T09:11:07Z</time>
      </trkpt>
      <trkpt lat="46.64454" lon="12.16807">
        <ele>2007.85</ele>
        <time>2017-03-03T09:11:25Z</time>
      </trkpt>
      <trkpt lat="46.64446" lon="12.16803">
        <ele>2009.29</ele>
        <time>2017-03-03T09:11:40Z</time>
      </trkpt>
      <trkpt lat="46.64442" lon="12.16804">
        <ele>2011.22</ele>
        <time>2017-03-03T09:11:54Z</time>
      </trkpt>
      <trkpt lat="46.64437" lon="12.16808">
        <ele>2013.62</ele>
        <time>2017-03-03T09:12:09Z</time>
      </trkpt>
      <trkpt lat="46.64428" lon="12.16805">
        <ele>2015.54</ele>
        <time>2017-03-03T09:12:26Z</time>
      </trkpt>
      <trkpt lat="46.64421" lon="12.16799">
        <ele>2016.98</ele>
        <time>2017-03-03T09:12:43Z</time>
      </trkpt>
      <trkpt lat="46.64412" lon="12.16793">
        <ele>2018.91</ele>
        <time>2017-03-03T09:13:00Z</time>
      </trkpt>
      <trkpt lat="46.64404" lon="12.16785">
        <ele>2019.87</ele>
        <time>2017-03-03T09:13:16Z</time>
      </trkpt>
      <trkpt lat="46.64399" lon="12.16775">
        <ele>2021.31</ele>
        <time>2017-03-03T09:13:33Z</time>
      </trkpt>
      <trkpt lat="46.6439" lon="12.16769">
        <ele>2023.23</ele>
        <time>2017-03-03T09:13:50Z</time>
      </trkpt>
      <trkpt lat="46.64382" lon="12.16766">
        <ele>2025.15</ele>
        <time>2017-03-03T09:14:06Z</time>
      </trkpt>
      <trkpt lat="46.64377" lon="12.16763">
        <ele>2026.6</ele>
        <time>2017-03-03T09:14:19Z</time>
      </trkpt>
      <trkpt lat="46.64369" lon="12.16762">
        <ele>2028.52</ele>
        <time>2017-03-03T09:14:38Z</time>
      </trkpt>
      <trkpt lat="46.64362" lon="12.16761">
        <ele>2029.96</ele>
        <time>2017-03-03T09:14:54Z</time>
      </trkpt>
      <trkpt lat="46.64357" lon="12.16761">
        <ele>2031.4</ele>
        <time>2017-03-03T09:15:08Z</time>
      </trkpt>
      <trkpt lat="46.64353" lon="12.16769">
        <ele>2033.33</ele>
        <time>2017-03-03T09:15:22Z</time>
      </trkpt>
      <trkpt lat="46.64349" lon="12.16776">
        <ele>2035.25</ele>
        <time>2017-03-03T09:15:38Z</time>
      </trkpt>
      <trkpt lat="46.64343" lon="12.16778">
        <ele>2037.17</ele>
        <time>2017-03-03T09:15:53Z</time>
      </trkpt>
      <trkpt lat="46.64338" lon="12.1677">
        <ele>2038.13</ele>
        <time>2017-03-03T09:16:07Z</time>
      </trkpt>
      <trkpt lat="46.64331" lon="12.16762">
        <ele>2039.57</ele>
        <time>2017-03-03T09:16:24Z</time>
      </trkpt>
      <trkpt lat="46.64329" lon="12.16778">
        <ele>2041.02</ele>
        <time>2017-03-03T09:16:39Z</time>
      </trkpt>
      <trkpt lat="46.64326" lon="12.16786">
        <ele>2042.94</ele>
        <time>2017-03-03T09:16:55Z</time>
      </trkpt>
      <trkpt lat="46.64321" lon="12.16791">
        <ele>2044.86</ele>
        <time>2017-03-03T09:17:11Z</time>
      </trkpt>
      <trkpt lat="46.64313" lon="12.16789">
        <ele>2046.78</ele>
        <time>2017-03-03T09:17:27Z</time>
      </trkpt>
      <trkpt lat="46.6431" lon="12.16786">
        <ele>2048.71</ele>
        <time>2017-03-03T09:17:41Z</time>
      </trkpt>
      <trkpt lat="46.64305" lon="12.16789">
        <ele>2050.15</ele>
        <time>2017-03-03T09:17:56Z</time>
      </trkpt>
      <trkpt lat="46.643" lon="12.16782">
        <ele>2051.59</ele>
        <time>2017-03-03T09:18:10Z</time>
      </trkpt>
      <trkpt lat="46.64295" lon="12.16785">
        <ele>2053.51</ele>
        <time>2017-03-03T09:18:24Z</time>
      </trkpt>
      <trkpt lat="46.64293" lon="12.16789">
        <ele>2054.96</ele>
        <time>2017-03-03T09:18:38Z</time>
      </trkpt>
      <trkpt lat="46.64289" lon="12.16781">
        <ele>2056.4</ele>
        <time>2017-03-03T09:18:52Z</time>
      </trkpt>
      <trkpt lat="46.64285" lon="12.16774">
        <ele>2057.84</ele>
        <time>2017-03-03T09:19:07Z</time>
      </trkpt>
      <trkpt lat="46.64281" lon="12.16779">
        <ele>2059.28</ele>
        <time>2017-03-03T09:19:21Z</time>
      </trkpt>
      <trkpt lat="46.64277" lon="12.16776">
        <ele>2061.2</ele>
        <time>2017-03-03T09:19:36Z</time>
      </trkpt>
      <trkpt lat="46.64274" lon="12.16766">
        <ele>2062.17</ele>
        <time>2017-03-03T09:19:50Z</time>
      </trkpt>
      <trkpt lat="46.64272" lon="12.16763">
        <ele>2063.61</ele>
        <time>2017-03-03T09:20:03Z</time>
      </trkpt>
      <trkpt lat="46.64266" lon="12.16763">
        <ele>2065.05</ele>
        <time>2017-03-03T09:20:20Z</time>
      </trkpt>
      <trkpt lat="46.64261" lon="12.16765">
        <ele>2066.97</ele>
        <time>2017-03-03T09:20:34Z</time>
      </trkpt>
      <trkpt lat="46.64257" lon="12.16766">
        <ele>2068.89</ele>
        <time>2017-03-03T09:20:47Z</time>
      </trkpt>
      <trkpt lat="46.64253" lon="12.16773">
        <ele>2070.34</ele>
        <time>2017-03-03T09:21:02Z</time>
      </trkpt>
      <trkpt lat="46.64249" lon="12.16771">
        <ele>2071.3</ele>
        <time>2017-03-03T09:21:17Z</time>
      </trkpt>
      <trkpt lat="46.64246" lon="12.16768">
        <ele>2073.22</ele>
        <time>2017-03-03T09:21:31Z</time>
      </trkpt>
      <trkpt lat="46.64243" lon="12.16769">
        <ele>2074.18</ele>
        <time>2017-03-03T09:21:43Z</time>
      </trkpt>
      <trkpt lat="46.64239" lon="12.1677">
        <ele>2076.1</ele>
        <time>2017-03-03T09:21:58Z</time>
      </trkpt>
      <trkpt lat="46.64237" lon="12.16768">
        <ele>2077.55</ele>
        <time>2017-03-03T09:22:10Z</time>
      </trkpt>
      <trkpt lat="46.64233" lon="12.1677">
        <ele>2078.99</ele>
        <time>2017-03-03T09:22:26Z</time>
      </trkpt>
      <trkpt lat="46.6423" lon="12.16763">
        <ele>2080.43</ele>
        <time>2017-03-03T09:22:41Z</time>
      </trkpt>
      <trkpt lat="46.64228" lon="12.16763">
        <ele>2081.39</ele>
        <time>2017-03-03T09:22:58Z</time>
      </trkpt>
      <trkpt lat="46.64225" lon="12.16762">
        <ele>2082.35</ele>
        <time>2017-03-03T09:23:12Z</time>
      </trkpt>
      <trkpt lat="46.64222" lon="12.1676">
        <ele>2084.28</ele>
        <time>2017-03-03T09:23:28Z</time>
      </trkpt>
      <trkpt lat="46.6422" lon="12.16762">
        <ele>2085.24</ele>
        <time>2017-03-03T09:23:45Z</time>
      </trkpt>
      <trkpt lat="46.64216" lon="12.16761">
        <ele>2085.72</ele>
        <time>2017-03-03T09:24:00Z</time>
      </trkpt>
      <trkpt lat="46.64213" lon="12.16757">
        <ele>2086.68</ele>
        <time>2017-03-03T09:24:13Z</time>
      </trkpt>
      <trkpt lat="46.64212" lon="12.16751">
        <ele>2087.64</ele>
        <time>2017-03-03T09:24:27Z</time>
      </trkpt>
      <trkpt lat="46.6421" lon="12.16748">
        <ele>2088.6</ele>
        <time>2017-03-03T09:24:43Z</time>
      </trkpt>
      <trkpt lat="46.64205" lon="12.16748">
        <ele>2090.04</ele>
        <time>2017-03-03T09:24:57Z</time>
      </trkpt>
      <trkpt lat="46.64201" lon="12.16741">
        <ele>2091.97</ele>
        <time>2017-03-03T09:25:12Z</time>
      </trkpt>
      <trkpt lat="46.64196" lon="12.16737">
        <ele>2093.89</ele>
        <time>2017-03-03T09:25:27Z</time>
      </trkpt>
      <trkpt lat="46.64194" lon="12.16735">
        <ele>2095.33</ele>
        <time>2017-03-03T09:25:40Z</time>
      </trkpt>
      <trkpt lat="46.64189" lon="12.16738">
        <ele>2096.29</ele>
        <time>2017-03-03T09:25:54Z</time>
      </trkpt>
      <trkpt lat="46.64187" lon="12.16732">
        <ele>2097.73</ele>
        <time>2017-03-03T09:26:08Z</time>
      </trkpt>
      <trkpt lat="46.64186" lon="12.16736">
        <ele>2097.73</ele>
        <time>2017-03-03T09:26:29Z</time>
      </trkpt>
      <trkpt lat="46.64186" lon="12.16729">
        <ele>2098.7</ele>
        <time>2017-03-03T09:26:50Z</time>
      </trkpt>
      <trkpt lat="46.64183" lon="12.16722">
        <ele>2100.14</ele>
        <time>2017-03-03T09:27:07Z</time>
      </trkpt>
      <trkpt lat="46.64175" lon="12.16722">
        <ele>2102.54</ele>
        <time>2017-03-03T09:27:24Z</time>
      </trkpt>
      <trkpt lat="46.64172" lon="12.16721">
        <ele>2104.94</ele>
        <time>2017-03-03T09:27:39Z</time>
      </trkpt>
      <trkpt lat="46.64171" lon="12.16714">
        <ele>2106.39</ele>
        <time>2017-03-03T09:27:55Z</time>
      </trkpt>
      <trkpt lat="46.64167" lon="12.16704">
        <ele>2108.79</ele>
        <time>2017-03-03T09:28:15Z</time>
      </trkpt>
      <trkpt lat="46.64161" lon="12.16704">
        <ele>2111.19</ele>
        <time>2017-03-03T09:28:31Z</time>
      </trkpt>
      <trkpt lat="46.64159" lon="12.16706">
        <ele>2112.15</ele>
        <time>2017-03-03T09:28:47Z</time>
      </trkpt>
      <trkpt lat="46.64155" lon="12.16705">
        <ele>2113.12</ele>
        <time>2017-03-03T09:29:09Z</time>
      </trkpt>
      <trkpt lat="46.6415" lon="12.16706">
        <ele>2114.56</ele>
        <time>2017-03-03T09:29:23Z</time>
      </trkpt>
      <trkpt lat="46.64149" lon="12.16702">
        <ele>2116</ele>
        <time>2017-03-03T09:29:36Z</time>
      </trkpt>
      <trkpt lat="46.64146" lon="12.16695">
        <ele>2117.44</ele>
        <time>2017-03-03T09:29:51Z</time>
      </trkpt>
      <trkpt lat="46.64141" lon="12.16694">
        <ele>2119.36</ele>
        <time>2017-03-03T09:30:07Z</time>
      </trkpt>
      <trkpt lat="46.64138" lon="12.16693">
        <ele>2120.81</ele>
        <time>2017-03-03T09:30:20Z</time>
      </trkpt>
      <trkpt lat="46.64138" lon="12.16688">
        <ele>2122.25</ele>
        <time>2017-03-03T09:30:34Z</time>
      </trkpt>
      <trkpt lat="46.64138" lon="12.16683">
        <ele>2123.69</ele>
        <time>2017-03-03T09:30:59Z</time>
      </trkpt>
      <trkpt lat="46.64133" lon="12.16683">
        <ele>2124.65</ele>
        <time>2017-03-03T09:31:13Z</time>
      </trkpt>
      <trkpt lat="46.6413" lon="12.16683">
        <ele>2126.09</ele>
        <time>2017-03-03T09:31:27Z</time>
      </trkpt>
      <trkpt lat="46.64128" lon="12.16679">
        <ele>2127.53</ele>
        <time>2017-03-03T09:31:41Z</time>
      </trkpt>
      <trkpt lat="46.64127" lon="12.16674">
        <ele>2128.98</ele>
        <time>2017-03-03T09:31:54Z</time>
      </trkpt>
      <trkpt lat="46.64127" lon="12.16666">
        <ele>2130.42</ele>
        <time>2017-03-03T09:32:09Z</time>
      </trkpt>
      <trkpt lat="46.64129" lon="12.16658">
        <ele>2132.34</ele>
        <time>2017-03-03T09:32:26Z</time>
      </trkpt>
      <trkpt lat="46.64127" lon="12.16652">
        <ele>2133.78</ele>
        <time>2017-03-03T09:32:41Z</time>
      </trkpt>
      <trkpt lat="46.64122" lon="12.1665">
        <ele>2135.71</ele>
        <time>2017-03-03T09:32:56Z</time>
      </trkpt>
      <trkpt lat="46.64118" lon="12.16646">
        <ele>2137.63</ele>
        <time>2017-03-03T09:33:10Z</time>
      </trkpt>
      <trkpt lat="46.6412" lon="12.16637">
        <ele>2139.55</ele>
        <time>2017-03-03T09:33:27Z</time>
      </trkpt>
      <trkpt lat="46.6412" lon="12.1663">
        <ele>2141.47</ele>
        <time>2017-03-03T09:33:42Z</time>
      </trkpt>
      <trkpt lat="46.64116" lon="12.16627">
        <ele>2142.92</ele>
        <time>2017-03-03T09:33:58Z</time>
      </trkpt>
      <trkpt lat="46.64112" lon="12.16625">
        <ele>2144.36</ele>
        <time>2017-03-03T09:34:15Z</time>
      </trkpt>
      <trkpt lat="46.64107" lon="12.16623">
        <ele>2146.76</ele>
        <time>2017-03-03T09:34:31Z</time>
      </trkpt>
      <trkpt lat="46.64104" lon="12.16618">
        <ele>2148.2</ele>
        <time>2017-03-03T09:34:46Z</time>
      </trkpt>
      <trkpt lat="46.64106" lon="12.16612">
        <ele>2150.13</ele>
        <time>2017-03-03T09:35:00Z</time>
      </trkpt>
      <trkpt lat="46.64105" lon="12.16605">
        <ele>2152.05</ele>
        <time>2017-03-03T09:35:14Z</time>
      </trkpt>
      <trkpt lat="46.64099" lon="12.16605">
        <ele>2154.45</ele>
        <time>2017-03-03T09:35:28Z</time>
      </trkpt>
      <trkpt lat="46.64092" lon="12.16606">
        <ele>2155.41</ele>
        <time>2017-03-03T09:35:43Z</time>
      </trkpt>
      <trkpt lat="46.64092" lon="12.166">
        <ele>2157.34</ele>
        <time>2017-03-03T09:35:59Z</time>
      </trkpt>
      <trkpt lat="46.64094" lon="12.16595">
        <ele>2159.26</ele>
        <time>2017-03-03T09:36:12Z</time>
      </trkpt>
      <trkpt lat="46.64087" lon="12.1659">
        <ele>2161.18</ele>
        <time>2017-03-03T09:36:26Z</time>
      </trkpt>
      <trkpt lat="46.64082" lon="12.16586">
        <ele>2162.62</ele>
        <time>2017-03-03T09:36:41Z</time>
      </trkpt>
      <trkpt lat="46.64079" lon="12.16585">
        <ele>2164.06</ele>
        <time>2017-03-03T09:36:54Z</time>
      </trkpt>
      <trkpt lat="46.64081" lon="12.16585">
        <ele>2164.55</ele>
        <time>2017-03-03T09:37:12Z</time>
      </trkpt>
      <trkpt lat="46.64083" lon="12.16588">
        <ele>2165.03</ele>
        <time>2017-03-03T09:37:27Z</time>
      </trkpt>
      <trkpt lat="46.64081" lon="12.16586">
        <ele>2165.51</ele>
        <time>2017-03-03T09:37:48Z</time>
      </trkpt>
      <trkpt lat="46.64081" lon="12.16581">
        <ele>2166.47</ele>
        <time>2017-03-03T09:38:00Z</time>
      </trkpt>
      <trkpt lat="46.64081" lon="12.16574">
        <ele>2167.91</ele>
        <time>2017-03-03T09:38:15Z</time>
      </trkpt>
      <trkpt lat="46.64075" lon="12.16567">
        <ele>2169.83</ele>
        <time>2017-03-03T09:38:29Z</time>
      </trkpt>
      <trkpt lat="46.6407" lon="12.16564">
        <ele>2171.27</ele>
        <time>2017-03-03T09:38:43Z</time>
      </trkpt>
      <trkpt lat="46.64068" lon="12.16561">
        <ele>2173.2</ele>
        <time>2017-03-03T09:38:58Z</time>
      </trkpt>
      <trkpt lat="46.64069" lon="12.16558">
        <ele>2175.12</ele>
        <time>2017-03-03T09:39:11Z</time>
      </trkpt>
      <trkpt lat="46.64069" lon="12.1655">
        <ele>2176.56</ele>
        <time>2017-03-03T09:39:25Z</time>
      </trkpt>
      <trkpt lat="46.64069" lon="12.16545">
        <ele>2178.48</ele>
        <time>2017-03-03T09:39:40Z</time>
      </trkpt>
      <trkpt lat="46.64063" lon="12.16543">
        <ele>2179.93</ele>
        <time>2017-03-03T09:39:53Z</time>
      </trkpt>
      <trkpt lat="46.6406" lon="12.16541">
        <ele>2181.85</ele>
        <time>2017-03-03T09:40:08Z</time>
      </trkpt>
      <trkpt lat="46.64053" lon="12.1654">
        <ele>2183.29</ele>
        <time>2017-03-03T09:40:21Z</time>
      </trkpt>
      <trkpt lat="46.64049" lon="12.16537">
        <ele>2183.77</ele>
        <time>2017-03-03T09:40:34Z</time>
      </trkpt>
      <trkpt lat="46.64049" lon="12.16538">
        <ele>2184.73</ele>
        <time>2017-03-03T09:40:46Z</time>
      </trkpt>
      <trkpt lat="46.64051" lon="12.16542">
        <ele>2184.25</ele>
        <time>2017-03-03T09:41:03Z</time>
      </trkpt>
      <trkpt lat="46.64048" lon="12.16539">
        <ele>2186.18</ele>
        <time>2017-03-03T09:41:17Z</time>
      </trkpt>
      <trkpt lat="46.64049" lon="12.16536">
        <ele>2188.1</ele>
        <time>2017-03-03T09:41:30Z</time>
      </trkpt>
      <trkpt lat="46.64049" lon="12.16527">
        <ele>2189.54</ele>
        <time>2017-03-03T09:41:46Z</time>
      </trkpt>
      <trkpt lat="46.6405" lon="12.16521">
        <ele>2191.46</ele>
        <time>2017-03-03T09:42:03Z</time>
      </trkpt>
      <trkpt lat="46.64051" lon="12.16517">
        <ele>2191.46</ele>
        <time>2017-03-03T09:42:22Z</time>
      </trkpt>
      <trkpt lat="46.64052" lon="12.1651">
        <ele>2193.39</ele>
        <time>2017-03-03T09:42:39Z</time>
      </trkpt>
      <trkpt lat="46.64056" lon="12.16503">
        <ele>2195.31</ele>
        <time>2017-03-03T09:42:53Z</time>
      </trkpt>
      <trkpt lat="46.64051" lon="12.16495">
        <ele>2196.75</ele>
        <time>2017-03-03T09:43:08Z</time>
      </trkpt>
      <trkpt lat="46.64045" lon="12.16495">
        <ele>2198.19</ele>
        <time>2017-03-03T09:43:20Z</time>
      </trkpt>
      <trkpt lat="46.64047" lon="12.16492">
        <ele>2200.59</ele>
        <time>2017-03-03T09:43:33Z</time>
      </trkpt>
      <trkpt lat="46.6405" lon="12.16482">
        <ele>2202.52</ele>
        <time>2017-03-03T09:43:50Z</time>
      </trkpt>
      <trkpt lat="46.6405" lon="12.16477">
        <ele>2203.96</ele>
        <time>2017-03-03T09:44:05Z</time>
      </trkpt>
      <trkpt lat="46.64051" lon="12.1647">
        <ele>2205.88</ele>
        <time>2017-03-03T09:44:20Z</time>
      </trkpt>
      <trkpt lat="46.64053" lon="12.16472">
        <ele>2205.4</ele>
        <time>2017-03-03T09:44:41Z</time>
      </trkpt>
      <trkpt lat="46.64053" lon="12.16473">
        <ele>2204.92</ele>
        <time>2017-03-03T09:45:01Z</time>
      </trkpt>
      <trkpt lat="46.64051" lon="12.16471">
        <ele>2205.4</ele>
        <time>2017-03-03T09:45:23Z</time>
      </trkpt>
      <trkpt lat="46.64053" lon="12.16474">
        <ele>2205.88</ele>
        <time>2017-03-03T09:45:41Z</time>
      </trkpt>
      <trkpt lat="46.64053" lon="12.16468">
        <ele>2206.36</ele>
        <time>2017-03-03T09:45:56Z</time>
      </trkpt>
      <trkpt lat="46.64053" lon="12.1647">
        <ele>2207.32</ele>
        <time>2017-03-03T09:46:12Z</time>
      </trkpt>
      <trkpt lat="46.64054" lon="12.16464">
        <ele>2208.29</ele>
        <time>2017-03-03T09:46:32Z</time>
      </trkpt>
      <trkpt lat="46.64054" lon="12.16454">
        <ele>2210.21</ele>
        <time>2017-03-03T09:46:48Z</time>
      </trkpt>
      <trkpt lat="46.64049" lon="12.16446">
        <ele>2213.09</ele>
        <time>2017-03-03T09:47:03Z</time>
      </trkpt>
      <trkpt lat="46.64039" lon="12.16443">
        <ele>2214.53</ele>
        <time>2017-03-03T09:47:19Z</time>
      </trkpt>
      <trkpt lat="46.64032" lon="12.16444">
        <ele>2215.98</ele>
        <time>2017-03-03T09:47:34Z</time>
      </trkpt>
      <trkpt lat="46.64026" lon="12.16446">
        <ele>2217.42</ele>
        <time>2017-03-03T09:47:47Z</time>
      </trkpt>
      <trkpt lat="46.64022" lon="12.16446">
        <ele>2218.86</ele>
        <time>2017-03-03T09:48:01Z</time>
      </trkpt>
      <trkpt lat="46.64018" lon="12.16448">
        <ele>2220.3</ele>
        <time>2017-03-03T09:48:13Z</time>
      </trkpt>
      <trkpt lat="46.6402" lon="12.16449">
        <ele>2220.78</ele>
        <time>2017-03-03T09:48:25Z</time>
      </trkpt>
      <trkpt lat="46.64024" lon="12.16441">
        <ele>2222.71</ele>
        <time>2017-03-03T09:48:39Z</time>
      </trkpt>
      <trkpt lat="46.64027" lon="12.16433">
        <ele>2224.15</ele>
        <time>2017-03-03T09:48:53Z</time>
      </trkpt>
      <trkpt lat="46.64029" lon="12.16425">
        <ele>2225.59</ele>
        <time>2017-03-03T09:49:07Z</time>
      </trkpt>
      <trkpt lat="46.64024" lon="12.16424">
        <ele>2227.51</ele>
        <time>2017-03-03T09:49:19Z</time>
      </trkpt>
      <trkpt lat="46.64018" lon="12.16423">
        <ele>2229.92</ele>
        <time>2017-03-03T09:49:32Z</time>
      </trkpt>
      <trkpt lat="46.64014" lon="12.16423">
        <ele>2229.92</ele>
        <time>2017-03-03T09:49:44Z</time>
      </trkpt>
      <trkpt lat="46.64009" lon="12.16423">
        <ele>2231.36</ele>
        <time>2017-03-03T09:49:56Z</time>
      </trkpt>
      <trkpt lat="46.64005" lon="12.16425">
        <ele>2232.8</ele>
        <time>2017-03-03T09:50:10Z</time>
      </trkpt>
      <trkpt lat="46.64009" lon="12.16425">
        <ele>2234.24</ele>
        <time>2017-03-03T09:50:24Z</time>
      </trkpt>
      <trkpt lat="46.64011" lon="12.16417">
        <ele>2236.16</ele>
        <time>2017-03-03T09:50:38Z</time>
      </trkpt>
      <trkpt lat="46.64012" lon="12.16411">
        <ele>2237.61</ele>
        <time>2017-03-03T09:50:51Z</time>
      </trkpt>
      <trkpt lat="46.64014" lon="12.16404">
        <ele>2239.05</ele>
        <time>2017-03-03T09:51:06Z</time>
      </trkpt>
      <trkpt lat="46.64013" lon="12.16398">
        <ele>2240.49</ele>
        <time>2017-03-03T09:51:21Z</time>
      </trkpt>
      <trkpt lat="46.64015" lon="12.16391">
        <ele>2243.37</ele>
        <time>2017-03-03T09:51:33Z</time>
      </trkpt>
      <trkpt lat="46.64013" lon="12.16384">
        <ele>2243.85</ele>
        <time>2017-03-03T09:51:47Z</time>
      </trkpt>
      <trkpt lat="46.64012" lon="12.16379">
        <ele>2245.3</ele>
        <time>2017-03-03T09:52:02Z</time>
      </trkpt>
      <trkpt lat="46.6401" lon="12.16372">
        <ele>2246.74</ele>
        <time>2017-03-03T09:52:14Z</time>
      </trkpt>
      <trkpt lat="46.64005" lon="12.1637">
        <ele>2247.7</ele>
        <time>2017-03-03T09:52:27Z</time>
      </trkpt>
      <trkpt lat="46.63997" lon="12.16375">
        <ele>2249.14</ele>
        <time>2017-03-03T09:52:40Z</time>
      </trkpt>
      <trkpt lat="46.63997" lon="12.16379">
        <ele>2249.62</ele>
        <time>2017-03-03T09:52:56Z</time>
      </trkpt>
      <trkpt lat="46.64" lon="12.16377">
        <ele>2250.1</ele>
        <time>2017-03-03T09:53:10Z</time>
      </trkpt>
      <trkpt lat="46.63996" lon="12.16382">
        <ele>2251.54</ele>
        <time>2017-03-03T09:53:23Z</time>
      </trkpt>
      <trkpt lat="46.63991" lon="12.16384">
        <ele>2252.99</ele>
        <time>2017-03-03T09:53:36Z</time>
      </trkpt>
      <trkpt lat="46.63993" lon="12.16376">
        <ele>2253.95</ele>
        <time>2017-03-03T09:53:48Z</time>
      </trkpt>
      <trkpt lat="46.63994" lon="12.16378">
        <ele>2254.43</ele>
        <time>2017-03-03T09:54:05Z</time>
      </trkpt>
      <trkpt lat="46.6399" lon="12.16376">
        <ele>2255.39</ele>
        <time>2017-03-03T09:54:17Z</time>
      </trkpt>
      <trkpt lat="46.63993" lon="12.16373">
        <ele>2256.83</ele>
        <time>2017-03-03T09:54:29Z</time>
      </trkpt>
      <trkpt lat="46.6399" lon="12.16369">
        <ele>2258.75</ele>
        <time>2017-03-03T09:54:39Z</time>
      </trkpt>
      <trkpt lat="46.63986" lon="12.16363">
        <ele>2260.2</ele>
        <time>2017-03-03T09:54:55Z</time>
      </trkpt>
      <trkpt lat="46.63981" lon="12.16365">
        <ele>2262.12</ele>
        <time>2017-03-03T09:55:07Z</time>
      </trkpt>
      <trkpt lat="46.63982" lon="12.16364">
        <ele>2262.6</ele>
        <time>2017-03-03T09:55:19Z</time>
      </trkpt>
      <trkpt lat="46.63984" lon="12.16362">
        <ele>2263.08</ele>
        <time>2017-03-03T09:55:34Z</time>
      </trkpt>
      <trkpt lat="46.63983" lon="12.16356">
        <ele>2264.04</ele>
        <time>2017-03-03T09:55:47Z</time>
      </trkpt>
      <trkpt lat="46.63979" lon="12.1636">
        <ele>2265</ele>
        <time>2017-03-03T09:55:59Z</time>
      </trkpt>
      <trkpt lat="46.63976" lon="12.16362">
        <ele>2265.48</ele>
        <time>2017-03-03T09:56:15Z</time>
      </trkpt>
      <trkpt lat="46.63977" lon="12.16359">
        <ele>2266.45</ele>
        <time>2017-03-03T09:56:28Z</time>
      </trkpt>
      <trkpt lat="46.63979" lon="12.16354">
        <ele>2266.93</ele>
        <time>2017-03-03T09:56:46Z</time>
      </trkpt>
      <trkpt lat="46.63978" lon="12.16352">
        <ele>2267.89</ele>
        <time>2017-03-03T09:56:59Z</time>
      </trkpt>
      <trkpt lat="46.63975" lon="12.16352">
        <ele>2268.37</ele>
        <time>2017-03-03T09:57:11Z</time>
      </trkpt>
      <trkpt lat="46.63975" lon="12.16352">
        <ele>2269.33</ele>
        <time>2017-03-03T09:57:26Z</time>
      </trkpt>
      <trkpt lat="46.63976" lon="12.1635">
        <ele>2270.29</ele>
        <time>2017-03-03T09:57:40Z</time>
      </trkpt>
      <trkpt lat="46.63978" lon="12.1635">
        <ele>2270.29</ele>
        <time>2017-03-03T09:57:59Z</time>
      </trkpt>
      <trkpt lat="46.63975" lon="12.16346">
        <ele>2271.25</ele>
        <time>2017-03-03T09:58:13Z</time>
      </trkpt>
      <trkpt lat="46.63971" lon="12.16346">
        <ele>2272.69</ele>
        <time>2017-03-03T09:58:29Z</time>
      </trkpt>
      <trkpt lat="46.63971" lon="12.16342">
        <ele>2274.14</ele>
        <time>2017-03-03T09:58:44Z</time>
      </trkpt>
      <trkpt lat="46.63973" lon="12.16341">
        <ele>2274.14</ele>
        <time>2017-03-03T09:59:01Z</time>
      </trkpt>
      <trkpt lat="46.6397" lon="12.1634">
        <ele>2275.58</ele>
        <time>2017-03-03T09:59:13Z</time>
      </trkpt>
      <trkpt lat="46.63963" lon="12.16338">
        <ele>2276.54</ele>
        <time>2017-03-03T09:59:25Z</time>
      </trkpt>
      <trkpt lat="46.63964" lon="12.16343">
        <ele>2276.54</ele>
        <time>2017-03-03T09:59:41Z</time>
      </trkpt>
      <trkpt lat="46.63961" lon="12.16346">
        <ele>2276.54</ele>
        <time>2017-03-03T09:59:59Z</time>
      </trkpt>
      <trkpt lat="46.63963" lon="12.16338">
        <ele>2276.54</ele>
        <time>2017-03-03T10:00:13Z</time>
      </trkpt>
      <trkpt lat="46.63967" lon="12.16338">
        <ele>2276.06</ele>
        <time>2017-03-03T10:00:28Z</time>
      </trkpt>
      <trkpt lat="46.63966" lon="12.1634">
        <ele>2276.54</ele>
        <time>2017-03-03T10:00:43Z</time>
      </trkpt>
      <trkpt lat="46.63965" lon="12.16345">
        <ele>2275.58</ele>
        <time>2017-03-03T10:00:58Z</time>
      </trkpt>
      <trkpt lat="46.63962" lon="12.16346">
        <ele>2275.58</ele>
        <time>2017-03-03T10:01:16Z</time>
      </trkpt>
      <trkpt lat="46.63964" lon="12.1634">
        <ele>2276.06</ele>
        <time>2017-03-03T10:01:31Z</time>
      </trkpt>
      <trkpt lat="46.63963" lon="12.16343">
        <ele>2276.54</ele>
        <time>2017-03-03T10:01:45Z</time>
      </trkpt>
      <trkpt lat="46.63962" lon="12.16344">
        <ele>2276.54</ele>
        <time>2017-03-03T10:02:01Z</time>
      </trkpt>
      <trkpt lat="46.63965" lon="12.16348">
        <ele>2276.06</ele>
        <time>2017-03-03T10:02:17Z</time>
      </trkpt>
      <trkpt lat="46.63967" lon="12.16347">
        <ele>2276.54</ele>
        <time>2017-03-03T10:02:36Z</time>
      </trkpt>
      <trkpt lat="46.63964" lon="12.16349">
        <ele>2276.54</ele>
        <time>2017-03-03T10:02:49Z</time>
      </trkpt>
      <trkpt lat="46.63966" lon="12.16349">
        <ele>2276.54</ele>
        <time>2017-03-03T10:03:08Z</time>
      </trkpt>
      <trkpt lat="46.63965" lon="12.16346">
        <ele>2276.54</ele>
        <time>2017-03-03T10:03:29Z</time>
      </trkpt>
      <trkpt lat="46.63965" lon="12.16345">
        <ele>2277.02</ele>
        <time>2017-03-03T10:03:44Z</time>
      </trkpt>
      <trkpt lat="46.63965" lon="12.16346">
        <ele>2277.5</ele>
        <time>2017-03-03T10:04:01Z</time>
      </trkpt>
      <trkpt lat="46.63963" lon="12.16344">
        <ele>2277.02</ele>
        <time>2017-03-03T10:04:14Z</time>
      </trkpt>
      <trkpt lat="46.63965" lon="12.16344">
        <ele>2277.02</ele>
        <time>2017-03-03T10:04:38Z</time>
      </trkpt>
      <trkpt lat="46.63964" lon="12.16344">
        <ele>2276.54</ele>
        <time>2017-03-03T10:04:58Z</time>
      </trkpt>
      <trkpt lat="46.63967" lon="12.16345">
        <ele>2277.02</ele>
        <time>2017-03-03T10:05:21Z</time>
      </trkpt>
      <trkpt lat="46.6397" lon="12.16346">
        <ele>2275.58</ele>
        <time>2017-03-03T10:05:35Z</time>
      </trkpt>
      <trkpt lat="46.63967" lon="12.16347">
        <ele>2276.06</ele>
        <time>2017-03-03T10:05:54Z</time>
      </trkpt>
      <trkpt lat="46.63965" lon="12.16346">
        <ele>2276.54</ele>
        <time>2017-03-03T10:06:20Z</time>
      </trkpt>
      <trkpt lat="46.63964" lon="12.16345">
        <ele>2276.06</ele>
        <time>2017-03-03T10:06:48Z</time>
      </trkpt>
      <trkpt lat="46.63962" lon="12.16345">
        <ele>2276.54</ele>
        <time>2017-03-03T10:07:22Z</time>
      </trkpt>
      <trkpt lat="46.63962" lon="12.16347">
        <ele>2276.06</ele>
        <time>2017-03-03T10:07:54Z</time>
      </trkpt>
      <trkpt lat="46.63963" lon="12.16348">
        <ele>2276.54</ele>
        <time>2017-03-03T10:08:24Z</time>
      </trkpt>
      <trkpt lat="46.63962" lon="12.1635">
        <ele>2277.02</ele>
        <time>2017-03-03T10:09:00Z</time>
      </trkpt>
      <trkpt lat="46.63965" lon="12.16347">
        <ele>2277.98</ele>
        <time>2017-03-03T10:09:34Z</time>
      </trkpt>
      <trkpt lat="46.63961" lon="12.16344">
        <ele>2277.98</ele>
        <time>2017-03-03T10:09:51Z</time>
      </trkpt>
      <trkpt lat="46.63958" lon="12.16341">
        <ele>2277.98</ele>
        <time>2017-03-03T10:10:09Z</time>
      </trkpt>
      <trkpt lat="46.63961" lon="12.16339">
        <ele>2277.02</ele>
        <time>2017-03-03T10:10:26Z</time>
      </trkpt>
      <trkpt lat="46.63962" lon="12.16341">
        <ele>2270.77</ele>
        <time>2017-03-03T10:10:41Z</time>
      </trkpt>
      <trkpt lat="46.63962" lon="12.16341">
        <ele>2283.75</ele>
        <time>2017-03-03T10:10:42Z</time>
      </trkpt>
      <trkpt lat="46.63962" lon="12.16341">
        <ele>2277.5</ele>
        <time>2017-03-03T10:10:43Z</time>
      </trkpt>
      <trkpt lat="46.63961" lon="12.1634">
        <ele>2277.5</ele>
        <time>2017-03-03T10:11:15Z</time>
      </trkpt>
      <trkpt lat="46.6396" lon="12.16344">
        <ele>2278.46</ele>
        <time>2017-03-03T10:11:32Z</time>
      </trkpt>
      <trkpt lat="46.63962" lon="12.16345">
        <ele>2278.46</ele>
        <time>2017-03-03T10:11:48Z</time>
      </trkpt>
      <trkpt lat="46.6396" lon="12.16348">
        <ele>2278.46</ele>
        <time>2017-03-03T10:12:10Z</time>
      </trkpt>
      <trkpt lat="46.63965" lon="12.16347">
        <ele>2278.94</ele>
        <time>2017-03-03T10:12:28Z</time>
      </trkpt>
      <trkpt lat="46.63962" lon="12.16348">
        <ele>2278.94</ele>
        <time>2017-03-03T10:12:48Z</time>
      </trkpt>
      <trkpt lat="46.6396" lon="12.16347">
        <ele>2278.94</ele>
        <time>2017-03-03T10:13:09Z</time>
      </trkpt>
      <trkpt lat="46.63962" lon="12.16346">
        <ele>2278.94</ele>
        <time>2017-03-03T10:13:24Z</time>
      </trkpt>
      <trkpt lat="46.63964" lon="12.16345">
        <ele>2278.94</ele>
        <time>2017-03-03T10:13:38Z</time>
      </trkpt>
      <trkpt lat="46.63967" lon="12.16347">
        <ele>2278.94</ele>
        <time>2017-03-03T10:13:58Z</time>
      </trkpt>
      <trkpt lat="46.63963" lon="12.16347">
        <ele>2278.94</ele>
        <time>2017-03-03T10:14:22Z</time>
      </trkpt>
      <trkpt lat="46.63966" lon="12.16346">
        <ele>2278.46</ele>
        <time>2017-03-03T10:14:37Z</time>
      </trkpt>
      <trkpt lat="46.63969" lon="12.16352">
        <ele>2275.58</ele>
        <time>2017-03-03T10:14:51Z</time>
      </trkpt>
      <trkpt lat="46.63969" lon="12.16353">
        <ele>2275.1</ele>
        <time>2017-03-03T10:15:11Z</time>
      </trkpt>
      <trkpt lat="46.6397" lon="12.16358">
        <ele>2276.06</ele>
        <time>2017-03-03T10:15:30Z</time>
      </trkpt>
      <trkpt lat="46.63969" lon="12.16354">
        <ele>2277.02</ele>
        <time>2017-03-03T10:15:45Z</time>
      </trkpt>
      <trkpt lat="46.63969" lon="12.16354">
        <ele>2275.58</ele>
        <time>2017-03-03T10:15:46Z</time>
      </trkpt>
      <trkpt lat="46.63971" lon="12.16355">
        <ele>2275.1</ele>
        <time>2017-03-03T10:16:00Z</time>
      </trkpt>
      <trkpt lat="46.63973" lon="12.16356">
        <ele>2274.62</ele>
        <time>2017-03-03T10:16:25Z</time>
      </trkpt>
      <trkpt lat="46.63971" lon="12.16358">
        <ele>2274.62</ele>
        <time>2017-03-03T10:16:34Z</time>
      </trkpt>
      <trkpt lat="46.63969" lon="12.1636">
        <ele>2272.21</ele>
        <time>2017-03-03T10:16:47Z</time>
      </trkpt>
      <trkpt lat="46.63969" lon="12.16363">
        <ele>2272.21</ele>
        <time>2017-03-03T10:16:58Z</time>
      </trkpt>
      <trkpt lat="46.63968" lon="12.16365">
        <ele>2273.17</ele>
        <time>2017-03-03T10:17:28Z</time>
      </trkpt>
      <trkpt lat="46.63965" lon="12.1637">
        <ele>2274.62</ele>
        <time>2017-03-03T10:18:04Z</time>
      </trkpt>
      <trkpt lat="46.63974" lon="12.16368">
        <ele>2273.17</ele>
        <time>2017-03-03T10:18:31Z</time>
      </trkpt>
      <trkpt lat="46.63973" lon="12.16372">
        <ele>2272.69</ele>
        <time>2017-03-03T10:18:59Z</time>
      </trkpt>
      <trkpt lat="46.63971" lon="12.16373">
        <ele>2273.17</ele>
        <time>2017-03-03T10:19:31Z</time>
      </trkpt>
      <trkpt lat="46.6397" lon="12.16368">
        <ele>2274.62</ele>
        <time>2017-03-03T10:19:47Z</time>
      </trkpt>
      <trkpt lat="46.63972" lon="12.16369">
        <ele>2273.66</ele>
        <time>2017-03-03T10:20:02Z</time>
      </trkpt>
      <trkpt lat="46.63974" lon="12.16367">
        <ele>2270.77</ele>
        <time>2017-03-03T10:20:05Z</time>
      </trkpt>
      <trkpt lat="46.63975" lon="12.16368">
        <ele>2270.77</ele>
        <time>2017-03-03T10:20:06Z</time>
      </trkpt>
      <trkpt lat="46.63975" lon="12.16369">
        <ele>2271.25</ele>
        <time>2017-03-03T10:20:07Z</time>
      </trkpt>
      <trkpt lat="46.63975" lon="12.1638">
        <ele>2268.85</ele>
        <time>2017-03-03T10:20:10Z</time>
      </trkpt>
      <trkpt lat="46.63975" lon="12.16379">
        <ele>2268.85</ele>
        <time>2017-03-03T10:20:27Z</time>
      </trkpt>
      <trkpt lat="46.6397" lon="12.16376">
        <ele>2269.33</ele>
        <time>2017-03-03T10:20:44Z</time>
      </trkpt>
      <trkpt lat="46.6397" lon="12.16383">
        <ele>2266.93</ele>
        <time>2017-03-03T10:20:49Z</time>
      </trkpt>
      <trkpt lat="46.63977" lon="12.16386">
        <ele>2262.12</ele>
        <time>2017-03-03T10:20:52Z</time>
      </trkpt>
      <trkpt lat="46.6398" lon="12.16383">
        <ele>2261.64</ele>
        <time>2017-03-03T10:20:53Z</time>
      </trkpt>
      <trkpt lat="46.63985" lon="12.16378">
        <ele>2260.2</ele>
        <time>2017-03-03T10:20:56Z</time>
      </trkpt>
      <trkpt lat="46.63988" lon="12.16375">
        <ele>2259.72</ele>
        <time>2017-03-03T10:20:58Z</time>
      </trkpt>
      <trkpt lat="46.63988" lon="12.16379">
        <ele>2259.72</ele>
        <time>2017-03-03T10:21:00Z</time>
      </trkpt>
      <trkpt lat="46.6399" lon="12.16382">
        <ele>2258.75</ele>
        <time>2017-03-03T10:21:02Z</time>
      </trkpt>
      <trkpt lat="46.63991" lon="12.16382">
        <ele>2256.83</ele>
        <time>2017-03-03T10:21:04Z</time>
      </trkpt>
      <trkpt lat="46.63994" lon="12.16381">
        <ele>2254.91</ele>
        <time>2017-03-03T10:21:08Z</time>
      </trkpt>
      <trkpt lat="46.63996" lon="12.16375">
        <ele>2255.39</ele>
        <time>2017-03-03T10:21:20Z</time>
      </trkpt>
      <trkpt lat="46.63997" lon="12.16377">
        <ele>2256.83</ele>
        <time>2017-03-03T10:21:36Z</time>
      </trkpt>
      <trkpt lat="46.63997" lon="12.16388">
        <ele>2255.87</ele>
        <time>2017-03-03T10:21:40Z</time>
      </trkpt>
      <trkpt lat="46.63994" lon="12.16405">
        <ele>2252.51</ele>
        <time>2017-03-03T10:21:45Z</time>
      </trkpt>
      <trkpt lat="46.63994" lon="12.16409">
        <ele>2251.54</ele>
        <time>2017-03-03T10:21:46Z</time>
      </trkpt>
      <trkpt lat="46.64004" lon="12.16417">
        <ele>2247.22</ele>
        <time>2017-03-03T10:21:49Z</time>
      </trkpt>
      <trkpt lat="46.64008" lon="12.16424">
        <ele>2242.89</ele>
        <time>2017-03-03T10:21:51Z</time>
      </trkpt>
      <trkpt lat="46.64011" lon="12.16427">
        <ele>2240.49</ele>
        <time>2017-03-03T10:21:53Z</time>
      </trkpt>
      <trkpt lat="46.64017" lon="12.16435">
        <ele>2235.68</ele>
        <time>2017-03-03T10:21:55Z</time>
      </trkpt>
      <trkpt lat="46.64019" lon="12.16438">
        <ele>2232.32</ele>
        <time>2017-03-03T10:21:57Z</time>
      </trkpt>
      <trkpt lat="46.64017" lon="12.16432">
        <ele>2231.84</ele>
        <time>2017-03-03T10:22:04Z</time>
      </trkpt>
      <trkpt lat="46.64015" lon="12.16451">
        <ele>2230.4</ele>
        <time>2017-03-03T10:22:10Z</time>
      </trkpt>
      <trkpt lat="46.64022" lon="12.16457">
        <ele>2227.03</ele>
        <time>2017-03-03T10:22:14Z</time>
      </trkpt>
      <trkpt lat="46.64023" lon="12.16466">
        <ele>2222.71</ele>
        <time>2017-03-03T10:22:16Z</time>
      </trkpt>
      <trkpt lat="46.64025" lon="12.16469">
        <ele>2223.19</ele>
        <time>2017-03-03T10:22:17Z</time>
      </trkpt>
      <trkpt lat="46.64028" lon="12.16485">
        <ele>2217.9</ele>
        <time>2017-03-03T10:22:21Z</time>
      </trkpt>
      <trkpt lat="46.64032" lon="12.16504">
        <ele>2211.65</ele>
        <time>2017-03-03T10:22:24Z</time>
      </trkpt>
      <trkpt lat="46.64034" lon="12.16511">
        <ele>2209.25</ele>
        <time>2017-03-03T10:22:25Z</time>
      </trkpt>
      <trkpt lat="46.64034" lon="12.16517">
        <ele>2206.84</ele>
        <time>2017-03-03T10:22:26Z</time>
      </trkpt>
      <trkpt lat="46.64034" lon="12.16515">
        <ele>2205.88</ele>
        <time>2017-03-03T10:22:35Z</time>
      </trkpt>
      <trkpt lat="46.64036" lon="12.16509">
        <ele>2207.32</ele>
        <time>2017-03-03T10:23:05Z</time>
      </trkpt>
      <trkpt lat="46.64037" lon="12.16511">
        <ele>2207.81</ele>
        <time>2017-03-03T10:23:08Z</time>
      </trkpt>
      <trkpt lat="46.64045" lon="12.16534">
        <ele>2205.4</ele>
        <time>2017-03-03T10:23:14Z</time>
      </trkpt>
      <trkpt lat="46.64048" lon="12.16548">
        <ele>2199.63</ele>
        <time>2017-03-03T10:23:16Z</time>
      </trkpt>
      <trkpt lat="46.64048" lon="12.16557">
        <ele>2195.79</ele>
        <time>2017-03-03T10:23:17Z</time>
      </trkpt>
      <trkpt lat="46.64051" lon="12.16576">
        <ele>2190.02</ele>
        <time>2017-03-03T10:23:19Z</time>
      </trkpt>
      <trkpt lat="46.64053" lon="12.16584">
        <ele>2189.06</ele>
        <time>2017-03-03T10:23:20Z</time>
      </trkpt>
      <trkpt lat="46.64059" lon="12.16607">
        <ele>2180.89</ele>
        <time>2017-03-03T10:23:23Z</time>
      </trkpt>
      <trkpt lat="46.64065" lon="12.16621">
        <ele>2176.56</ele>
        <time>2017-03-03T10:23:25Z</time>
      </trkpt>
      <trkpt lat="46.64069" lon="12.16636">
        <ele>2170.79</ele>
        <time>2017-03-03T10:23:27Z</time>
      </trkpt>
      <trkpt lat="46.64072" lon="12.16639">
        <ele>2167.43</ele>
        <time>2017-03-03T10:23:28Z</time>
      </trkpt>
      <trkpt lat="46.64077" lon="12.16648">
        <ele>2164.06</ele>
        <time>2017-03-03T10:23:30Z</time>
      </trkpt>
      <trkpt lat="46.6408" lon="12.16653">
        <ele>2162.14</ele>
        <time>2017-03-03T10:23:31Z</time>
      </trkpt>
      <trkpt lat="46.64081" lon="12.16662">
        <ele>2159.74</ele>
        <time>2017-03-03T10:23:32Z</time>
      </trkpt>
      <trkpt lat="46.64084" lon="12.16666">
        <ele>2154.45</ele>
        <time>2017-03-03T10:23:34Z</time>
      </trkpt>
      <trkpt lat="46.64083" lon="12.16654">
        <ele>2155.41</ele>
        <time>2017-03-03T10:23:43Z</time>
      </trkpt>
      <trkpt lat="46.64083" lon="12.16647">
        <ele>2157.34</ele>
        <time>2017-03-03T10:23:49Z</time>
      </trkpt>
      <trkpt lat="46.64083" lon="12.16647">
        <ele>2155.89</ele>
        <time>2017-03-03T10:23:50Z</time>
      </trkpt>
      <trkpt lat="46.64086" lon="12.16645">
        <ele>2157.34</ele>
        <time>2017-03-03T10:24:13Z</time>
      </trkpt>
      <trkpt lat="46.64089" lon="12.16639">
        <ele>2158.3</ele>
        <time>2017-03-03T10:24:39Z</time>
      </trkpt>
      <trkpt lat="46.64086" lon="12.16644">
        <ele>2159.74</ele>
        <time>2017-03-03T10:25:07Z</time>
      </trkpt>
      <trkpt lat="46.64087" lon="12.16635">
        <ele>2160.22</ele>
        <time>2017-03-03T10:25:30Z</time>
      </trkpt>
      <trkpt lat="46.64091" lon="12.16628">
        <ele>2160.7</ele>
        <time>2017-03-03T10:25:55Z</time>
      </trkpt>
      <trkpt lat="46.64096" lon="12.16622">
        <ele>2161.18</ele>
        <time>2017-03-03T10:26:09Z</time>
      </trkpt>
      <trkpt lat="46.64095" lon="12.16631">
        <ele>2158.78</ele>
        <time>2017-03-03T10:26:15Z</time>
      </trkpt>
      <trkpt lat="46.64094" lon="12.16635">
        <ele>2158.3</ele>
        <time>2017-03-03T10:26:26Z</time>
      </trkpt>
      <trkpt lat="46.64094" lon="12.16627">
        <ele>2157.82</ele>
        <time>2017-03-03T10:26:48Z</time>
      </trkpt>
      <trkpt lat="46.64096" lon="12.16637">
        <ele>2156.86</ele>
        <time>2017-03-03T10:27:04Z</time>
      </trkpt>
      <trkpt lat="46.641" lon="12.16655">
        <ele>2152.53</ele>
        <time>2017-03-03T10:27:10Z</time>
      </trkpt>
      <trkpt lat="46.6411" lon="12.16667">
        <ele>2148.2</ele>
        <time>2017-03-03T10:27:13Z</time>
      </trkpt>
      <trkpt lat="46.64112" lon="12.16674">
        <ele>2144.36</ele>
        <time>2017-03-03T10:27:15Z</time>
      </trkpt>
      <trkpt lat="46.64115" lon="12.16684">
        <ele>2140.03</ele>
        <time>2017-03-03T10:27:29Z</time>
      </trkpt>
      <trkpt lat="46.64115" lon="12.16687">
        <ele>2140.03</ele>
        <time>2017-03-03T10:27:30Z</time>
      </trkpt>
      <trkpt lat="46.64119" lon="12.16699">
        <ele>2137.15</ele>
        <time>2017-03-03T10:27:35Z</time>
      </trkpt>
      <trkpt lat="46.64124" lon="12.16709">
        <ele>2132.82</ele>
        <time>2017-03-03T10:27:38Z</time>
      </trkpt>
      <trkpt lat="46.64126" lon="12.16712">
        <ele>2131.86</ele>
        <time>2017-03-03T10:27:39Z</time>
      </trkpt>
      <trkpt lat="46.64133" lon="12.16719">
        <ele>2128.5</ele>
        <time>2017-03-03T10:27:40Z</time>
      </trkpt>
      <trkpt lat="46.64133" lon="12.1672">
        <ele>2127.53</ele>
        <time>2017-03-03T10:27:41Z</time>
      </trkpt>
      <trkpt lat="46.64137" lon="12.16732">
        <ele>2122.73</ele>
        <time>2017-03-03T10:27:43Z</time>
      </trkpt>
      <trkpt lat="46.64143" lon="12.16731">
        <ele>2120.81</ele>
        <time>2017-03-03T10:27:45Z</time>
      </trkpt>
      <trkpt lat="46.64147" lon="12.16733">
        <ele>2118.88</ele>
        <time>2017-03-03T10:27:50Z</time>
      </trkpt>
      <trkpt lat="46.64148" lon="12.16734">
        <ele>2118.88</ele>
        <time>2017-03-03T10:28:07Z</time>
      </trkpt>
      <trkpt lat="46.64149" lon="12.16742">
        <ele>2119.84</ele>
        <time>2017-03-03T10:28:26Z</time>
      </trkpt>
      <trkpt lat="46.64149" lon="12.16754">
        <ele>2118.4</ele>
        <time>2017-03-03T10:28:30Z</time>
      </trkpt>
      <trkpt lat="46.64157" lon="12.16769">
        <ele>2114.56</ele>
        <time>2017-03-03T10:28:34Z</time>
      </trkpt>
      <trkpt lat="46.64162" lon="12.16776">
        <ele>2110.71</ele>
        <time>2017-03-03T10:28:36Z</time>
      </trkpt>
      <trkpt lat="46.64172" lon="12.16781">
        <ele>2108.31</ele>
        <time>2017-03-03T10:28:40Z</time>
      </trkpt>
      <trkpt lat="46.64175" lon="12.16782">
        <ele>2106.39</ele>
        <time>2017-03-03T10:28:41Z</time>
      </trkpt>
      <trkpt lat="46.64175" lon="12.16787">
        <ele>2104.94</ele>
        <time>2017-03-03T10:28:50Z</time>
      </trkpt>
      <trkpt lat="46.64173" lon="12.16791">
        <ele>2103.5</ele>
        <time>2017-03-03T10:29:10Z</time>
      </trkpt>
      <trkpt lat="46.64175" lon="12.16794">
        <ele>2103.5</ele>
        <time>2017-03-03T10:29:19Z</time>
      </trkpt>
      <trkpt lat="46.64181" lon="12.16786">
        <ele>2101.58</ele>
        <time>2017-03-03T10:29:24Z</time>
      </trkpt>
      <trkpt lat="46.64183" lon="12.16791">
        <ele>2099.18</ele>
        <time>2017-03-03T10:29:27Z</time>
      </trkpt>
      <trkpt lat="46.64186" lon="12.16801">
        <ele>2097.73</ele>
        <time>2017-03-03T10:29:31Z</time>
      </trkpt>
      <trkpt lat="46.64191" lon="12.16812">
        <ele>2094.37</ele>
        <time>2017-03-03T10:29:41Z</time>
      </trkpt>
      <trkpt lat="46.64194" lon="12.16802">
        <ele>2095.33</ele>
        <time>2017-03-03T10:30:06Z</time>
      </trkpt>
      <trkpt lat="46.64204" lon="12.16791">
        <ele>2093.89</ele>
        <time>2017-03-03T10:30:11Z</time>
      </trkpt>
      <trkpt lat="46.64209" lon="12.16809">
        <ele>2089.56</ele>
        <time>2017-03-03T10:30:14Z</time>
      </trkpt>
      <trkpt lat="46.64213" lon="12.16821">
        <ele>2088.12</ele>
        <time>2017-03-03T10:30:23Z</time>
      </trkpt>
      <trkpt lat="46.64218" lon="12.16835">
        <ele>2084.28</ele>
        <time>2017-03-03T10:30:30Z</time>
      </trkpt>
      <trkpt lat="46.64222" lon="12.16837">
        <ele>2083.79</ele>
        <time>2017-03-03T10:30:42Z</time>
      </trkpt>
      <trkpt lat="46.64248" lon="12.16848">
        <ele>2079.95</ele>
        <time>2017-03-03T10:30:52Z</time>
      </trkpt>
      <trkpt lat="46.64255" lon="12.16845">
        <ele>2076.1</ele>
        <time>2017-03-03T10:30:54Z</time>
      </trkpt>
      <trkpt lat="46.6427" lon="12.16842">
        <ele>2070.82</ele>
        <time>2017-03-03T10:30:58Z</time>
      </trkpt>
      <trkpt lat="46.64279" lon="12.16833">
        <ele>2066.49</ele>
        <time>2017-03-03T10:31:01Z</time>
      </trkpt>
      <trkpt lat="46.64281" lon="12.16834">
        <ele>2064.57</ele>
        <time>2017-03-03T10:31:08Z</time>
      </trkpt>
      <trkpt lat="46.6428" lon="12.16836">
        <ele>2066.01</ele>
        <time>2017-03-03T10:31:28Z</time>
      </trkpt>
      <trkpt lat="46.64279" lon="12.16838">
        <ele>2065.05</ele>
        <time>2017-03-03T10:31:50Z</time>
      </trkpt>
      <trkpt lat="46.6428" lon="12.16836">
        <ele>2064.57</ele>
        <time>2017-03-03T10:31:56Z</time>
      </trkpt>
      <trkpt lat="46.64287" lon="12.16837">
        <ele>2062.17</ele>
        <time>2017-03-03T10:32:05Z</time>
      </trkpt>
      <trkpt lat="46.64289" lon="12.16839">
        <ele>2062.17</ele>
        <time>2017-03-03T10:32:31Z</time>
      </trkpt>
      <trkpt lat="46.64287" lon="12.16842">
        <ele>2063.61</ele>
        <time>2017-03-03T10:33:08Z</time>
      </trkpt>
      <trkpt lat="46.64299" lon="12.16849">
        <ele>2059.76</ele>
        <time>2017-03-03T10:33:13Z</time>
      </trkpt>
      <trkpt lat="46.64307" lon="12.16854">
        <ele>2056.4</ele>
        <time>2017-03-03T10:33:29Z</time>
      </trkpt>
      <trkpt lat="46.64318" lon="12.1686">
        <ele>2053.51</ele>
        <time>2017-03-03T10:33:42Z</time>
      </trkpt>
      <trkpt lat="46.64318" lon="12.1686">
        <ele>2053.51</ele>
        <time>2017-03-03T10:33:43Z</time>
      </trkpt>
      <trkpt lat="46.64318" lon="12.16857">
        <ele>2053.03</ele>
        <time>2017-03-03T10:34:08Z</time>
      </trkpt>
      <trkpt lat="46.6432" lon="12.16858">
        <ele>2052.55</ele>
        <time>2017-03-03T10:34:14Z</time>
      </trkpt>
      <trkpt lat="46.64333" lon="12.16853">
        <ele>2049.19</ele>
        <time>2017-03-03T10:34:19Z</time>
      </trkpt>
      <trkpt lat="46.6435" lon="12.16847">
        <ele>2043.9</ele>
        <time>2017-03-03T10:34:23Z</time>
      </trkpt>
      <trkpt lat="46.64358" lon="12.16849">
        <ele>2041.5</ele>
        <time>2017-03-03T10:34:25Z</time>
      </trkpt>
      <trkpt lat="46.64366" lon="12.16861">
        <ele>2038.61</ele>
        <time>2017-03-03T10:34:34Z</time>
      </trkpt>
      <trkpt lat="46.64376" lon="12.16876">
        <ele>2035.73</ele>
        <time>2017-03-03T10:34:45Z</time>
      </trkpt>
      <trkpt lat="46.64381" lon="12.16879">
        <ele>2033.81</ele>
        <time>2017-03-03T10:34:46Z</time>
      </trkpt>
      <trkpt lat="46.64399" lon="12.1688">
        <ele>2029</ele>
        <time>2017-03-03T10:34:51Z</time>
      </trkpt>
      <trkpt lat="46.64406" lon="12.16882">
        <ele>2027.56</ele>
        <time>2017-03-03T10:34:52Z</time>
      </trkpt>
      <trkpt lat="46.64413" lon="12.16879">
        <ele>2025.64</ele>
        <time>2017-03-03T10:34:55Z</time>
      </trkpt>
      <trkpt lat="46.64429" lon="12.16875">
        <ele>2020.83</ele>
        <time>2017-03-03T10:35:00Z</time>
      </trkpt>
      <trkpt lat="46.64439" lon="12.16877">
        <ele>2018.43</ele>
        <time>2017-03-03T10:35:03Z</time>
      </trkpt>
      <trkpt lat="46.64444" lon="12.16875">
        <ele>2017.46</ele>
        <time>2017-03-03T10:35:05Z</time>
      </trkpt>
      <trkpt lat="46.64445" lon="12.16875">
        <ele>2017.46</ele>
        <time>2017-03-03T10:35:06Z</time>
      </trkpt>
      <trkpt lat="46.64454" lon="12.16862">
        <ele>2015.54</ele>
        <time>2017-03-03T10:35:09Z</time>
      </trkpt>
      <trkpt lat="46.64471" lon="12.16849">
        <ele>2012.18</ele>
        <time>2017-03-03T10:35:13Z</time>
      </trkpt>
      <trkpt lat="46.64493" lon="12.16837">
        <ele>2006.41</ele>
        <time>2017-03-03T10:35:18Z</time>
      </trkpt>
      <trkpt lat="46.6452" lon="12.16835">
        <ele>2002.08</ele>
        <time>2017-03-03T10:35:25Z</time>
      </trkpt>
      <trkpt lat="46.64533" lon="12.16839">
        <ele>1999.2</ele>
        <time>2017-03-03T10:35:31Z</time>
      </trkpt>
      <trkpt lat="46.64545" lon="12.16847">
        <ele>1995.83</ele>
        <time>2017-03-03T10:35:37Z</time>
      </trkpt>
      <trkpt lat="46.6455" lon="12.16859">
        <ele>1994.39</ele>
        <time>2017-03-03T10:35:47Z</time>
      </trkpt>
      <trkpt lat="46.64557" lon="12.1686">
        <ele>1993.43</ele>
        <time>2017-03-03T10:35:50Z</time>
      </trkpt>
      <trkpt lat="46.6457" lon="12.16866">
        <ele>1991.99</ele>
        <time>2017-03-03T10:35:54Z</time>
      </trkpt>
      <trkpt lat="46.64575" lon="12.16871">
        <ele>1991.51</ele>
        <time>2017-03-03T10:36:03Z</time>
      </trkpt>
      <trkpt lat="46.6458" lon="12.16871">
        <ele>1992.47</ele>
        <time>2017-03-03T10:36:22Z</time>
      </trkpt>
      <trkpt lat="46.64584" lon="12.16873">
        <ele>1992.95</ele>
        <time>2017-03-03T10:36:32Z</time>
      </trkpt>
      <trkpt lat="46.64588" lon="12.16879">
        <ele>1993.43</ele>
        <time>2017-03-03T10:36:45Z</time>
      </trkpt>
      <trkpt lat="46.64589" lon="12.16885">
        <ele>1994.39</ele>
        <time>2017-03-03T10:36:58Z</time>
      </trkpt>
      <trkpt lat="46.64589" lon="12.16886">
        <ele>1994.39</ele>
        <time>2017-03-03T10:37:20Z</time>
      </trkpt>
      <trkpt lat="46.64587" lon="12.16886">
        <ele>1996.32</ele>
        <time>2017-03-03T10:37:40Z</time>
      </trkpt>
      <trkpt lat="46.64591" lon="12.16883">
        <ele>1994.87</ele>
        <time>2017-03-03T10:38:01Z</time>
      </trkpt>
      <trkpt lat="46.64599" lon="12.1691">
        <ele>1992.95</ele>
        <time>2017-03-03T10:38:18Z</time>
      </trkpt>
      <trkpt lat="46.64613" lon="12.16944">
        <ele>1989.1</ele>
        <time>2017-03-03T10:38:26Z</time>
      </trkpt>
      <trkpt lat="46.64617" lon="12.1695">
        <ele>1989.1</ele>
        <time>2017-03-03T10:38:27Z</time>
      </trkpt>
      <trkpt lat="46.6462" lon="12.16957">
        <ele>1988.62</ele>
        <time>2017-03-03T10:38:28Z</time>
      </trkpt>
      <trkpt lat="46.64622" lon="12.16964">
        <ele>1988.14</ele>
        <time>2017-03-03T10:38:29Z</time>
      </trkpt>
      <trkpt lat="46.64623" lon="12.16971">
        <ele>1987.66</ele>
        <time>2017-03-03T10:38:30Z</time>
      </trkpt>
      <trkpt lat="46.64625" lon="12.16977">
        <ele>1987.66</ele>
        <time>2017-03-03T10:38:31Z</time>
      </trkpt>
      <trkpt lat="46.64626" lon="12.16983">
        <ele>1987.66</ele>
        <time>2017-03-03T10:38:32Z</time>
      </trkpt>
      <trkpt lat="46.64628" lon="12.16988">
        <ele>1987.18</ele>
        <time>2017-03-03T10:38:33Z</time>
      </trkpt>
      <trkpt lat="46.64638" lon="12.1701">
        <ele>1985.74</ele>
        <time>2017-03-03T10:38:37Z</time>
      </trkpt>
      <trkpt lat="46.64642" lon="12.17015">
        <ele>1985.74</ele>
        <time>2017-03-03T10:38:38Z</time>
      </trkpt>
      <trkpt lat="46.64646" lon="12.17018">
        <ele>1985.26</ele>
        <time>2017-03-03T10:38:39Z</time>
      </trkpt>
      <trkpt lat="46.64655" lon="12.17021">
        <ele>1984.3</ele>
        <time>2017-03-03T10:38:41Z</time>
      </trkpt>
      <trkpt lat="46.64664" lon="12.17025">
        <ele>1983.34</ele>
        <time>2017-03-03T10:38:43Z</time>
      </trkpt>
      <trkpt lat="46.6468" lon="12.17037">
        <ele>1981.41</ele>
        <time>2017-03-03T10:38:47Z</time>
      </trkpt>
      <trkpt lat="46.64683" lon="12.17041">
        <ele>1980.93</ele>
        <time>2017-03-03T10:38:48Z</time>
      </trkpt>
      <trkpt lat="46.64694" lon="12.17068">
        <ele>1977.09</ele>
        <time>2017-03-03T10:38:54Z</time>
      </trkpt>
      <trkpt lat="46.647" lon="12.17077">
        <ele>1975.17</ele>
        <time>2017-03-03T10:38:56Z</time>
      </trkpt>
      <trkpt lat="46.64708" lon="12.17099">
        <ele>1972.76</ele>
        <time>2017-03-03T10:39:00Z</time>
      </trkpt>
      <trkpt lat="46.64713" lon="12.17114">
        <ele>1970.84</ele>
        <time>2017-03-03T10:39:03Z</time>
      </trkpt>
      <trkpt lat="46.64723" lon="12.17129">
        <ele>1966.99</ele>
        <time>2017-03-03T10:39:07Z</time>
      </trkpt>
      <trkpt lat="46.64723" lon="12.17148">
        <ele>1962.67</ele>
        <time>2017-03-03T10:39:12Z</time>
      </trkpt>
      <trkpt lat="46.64723" lon="12.17148">
        <ele>1962.67</ele>
        <time>2017-03-03T10:39:13Z</time>
      </trkpt>
      <trkpt lat="46.64724" lon="12.17149">
        <ele>1963.63</ele>
        <time>2017-03-03T10:39:19Z</time>
      </trkpt>
      <trkpt lat="46.64734" lon="12.17157">
        <ele>1960.75</ele>
        <time>2017-03-03T10:39:23Z</time>
      </trkpt>
      <trkpt lat="46.64752" lon="12.17177">
        <ele>1956.42</ele>
        <time>2017-03-03T10:39:28Z</time>
      </trkpt>
      <trkpt lat="46.64755" lon="12.17181">
        <ele>1955.94</ele>
        <time>2017-03-03T10:39:29Z</time>
      </trkpt>
      <trkpt lat="46.64766" lon="12.17191">
        <ele>1954.98</ele>
        <time>2017-03-03T10:39:38Z</time>
      </trkpt>
      <trkpt lat="46.64768" lon="12.17188">
        <ele>1954.98</ele>
        <time>2017-03-03T10:39:50Z</time>
      </trkpt>
      <trkpt lat="46.64769" lon="12.17188">
        <ele>1954.98</ele>
        <time>2017-03-03T10:39:51Z</time>
      </trkpt>
      <trkpt lat="46.64776" lon="12.17192">
        <ele>1954.02</ele>
        <time>2017-03-03T10:39:59Z</time>
      </trkpt>
      <trkpt lat="46.64776" lon="12.17188">
        <ele>1953.54</ele>
        <time>2017-03-03T10:40:11Z</time>
      </trkpt>
      <trkpt lat="46.64773" lon="12.17185">
        <ele>1949.21</ele>
        <time>2017-03-03T10:40:26Z</time>
      </trkpt>
      <trkpt lat="46.64774" lon="12.17186">
        <ele>1955.46</ele>
        <time>2017-03-03T10:40:27Z</time>
      </trkpt>
      <trkpt lat="46.64775" lon="12.17188">
        <ele>1953.54</ele>
        <time>2017-03-03T10:40:41Z</time>
      </trkpt>
      <trkpt lat="46.64776" lon="12.17185">
        <ele>1953.06</ele>
        <time>2017-03-03T10:41:00Z</time>
      </trkpt>
      <trkpt lat="46.6478" lon="12.17183">
        <ele>1952.57</ele>
        <time>2017-03-03T10:41:25Z</time>
      </trkpt>
      <trkpt lat="46.64785" lon="12.17183">
        <ele>1952.57</ele>
        <time>2017-03-03T10:41:27Z</time>
      </trkpt>
      <trkpt lat="46.64812" lon="12.17179">
        <ele>1949.21</ele>
        <time>2017-03-03T10:41:32Z</time>
      </trkpt>
      <trkpt lat="46.64817" lon="12.17178">
        <ele>1947.77</ele>
        <time>2017-03-03T10:41:33Z</time>
      </trkpt>
      <trkpt lat="46.64827" lon="12.17175">
        <ele>1945.36</ele>
        <time>2017-03-03T10:41:35Z</time>
      </trkpt>
      <trkpt lat="46.64831" lon="12.17175">
        <ele>1944.88</ele>
        <time>2017-03-03T10:41:36Z</time>
      </trkpt>
      <trkpt lat="46.64839" lon="12.17174">
        <ele>1943.92</ele>
        <time>2017-03-03T10:41:38Z</time>
      </trkpt>
      <trkpt lat="46.64847" lon="12.17169">
        <ele>1942.96</ele>
        <time>2017-03-03T10:41:40Z</time>
      </trkpt>
      <trkpt lat="46.64853" lon="12.17166">
        <ele>1941.52</ele>
        <time>2017-03-03T10:41:41Z</time>
      </trkpt>
      <trkpt lat="46.64859" lon="12.17163">
        <ele>1939.6</ele>
        <time>2017-03-03T10:41:42Z</time>
      </trkpt>
      <trkpt lat="46.64871" lon="12.17162">
        <ele>1935.75</ele>
        <time>2017-03-03T10:41:44Z</time>
      </trkpt>
      <trkpt lat="46.64892" lon="12.17161">
        <ele>1933.83</ele>
        <time>2017-03-03T10:41:47Z</time>
      </trkpt>
      <trkpt lat="46.64933" lon="12.17144">
        <ele>1930.95</ele>
        <time>2017-03-03T10:41:53Z</time>
      </trkpt>
      <trkpt lat="46.64947" lon="12.17134">
        <ele>1927.58</ele>
        <time>2017-03-03T10:41:55Z</time>
      </trkpt>
      <trkpt lat="46.64961" lon="12.17121">
        <ele>1924.7</ele>
        <time>2017-03-03T10:41:57Z</time>
      </trkpt>
      <trkpt lat="46.64969" lon="12.17116">
        <ele>1923.25</ele>
        <time>2017-03-03T10:41:58Z</time>
      </trkpt>
      <trkpt lat="46.64994" lon="12.17104">
        <ele>1919.41</ele>
        <time>2017-03-03T10:42:01Z</time>
      </trkpt>
      <trkpt lat="46.65019" lon="12.17094">
        <ele>1917.97</ele>
        <time>2017-03-03T10:42:04Z</time>
      </trkpt>
      <trkpt lat="46.65049" lon="12.17083">
        <ele>1918.93</ele>
        <time>2017-03-03T10:42:12Z</time>
      </trkpt>
      <trkpt lat="46.65052" lon="12.17081">
        <ele>1920.37</ele>
        <time>2017-03-03T10:42:25Z</time>
      </trkpt>
      <trkpt lat="46.65058" lon="12.17081">
        <ele>1920.85</ele>
        <time>2017-03-03T10:42:40Z</time>
      </trkpt>
      <trkpt lat="46.65068" lon="12.17082">
        <ele>1922.29</ele>
        <time>2017-03-03T10:42:58Z</time>
      </trkpt>
      <trkpt lat="46.65076" lon="12.17088">
        <ele>1923.25</ele>
        <time>2017-03-03T10:43:17Z</time>
      </trkpt>
      <trkpt lat="46.65088" lon="12.17095">
        <ele>1922.77</ele>
        <time>2017-03-03T10:43:33Z</time>
      </trkpt>
      <trkpt lat="46.65102" lon="12.17095">
        <ele>1924.7</ele>
        <time>2017-03-03T10:43:53Z</time>
      </trkpt>
      <trkpt lat="46.65112" lon="12.17097">
        <ele>1925.18</ele>
        <time>2017-03-03T10:44:11Z</time>
      </trkpt>
      <trkpt lat="46.65124" lon="12.17097">
        <ele>1926.14</ele>
        <time>2017-03-03T10:44:28Z</time>
      </trkpt>
      <trkpt lat="46.65139" lon="12.17087">
        <ele>1927.1</ele>
        <time>2017-03-03T10:44:49Z</time>
      </trkpt>
      <trkpt lat="46.65154" lon="12.17085">
        <ele>1929.02</ele>
        <time>2017-03-03T10:45:09Z</time>
      </trkpt>
      <trkpt lat="46.65169" lon="12.17081">
        <ele>1929.98</ele>
        <time>2017-03-03T10:45:30Z</time>
      </trkpt>
      <trkpt lat="46.6518" lon="12.17082">
        <ele>1930.46</ele>
        <time>2017-03-03T10:45:49Z</time>
      </trkpt>
      <trkpt lat="46.65187" lon="12.17083">
        <ele>1930.46</ele>
        <time>2017-03-03T10:46:06Z</time>
      </trkpt>
      <trkpt lat="46.65188" lon="12.17084">
        <ele>1930.46</ele>
        <time>2017-03-03T10:46:27Z</time>
      </trkpt>
      <trkpt lat="46.6519" lon="12.17086">
        <ele>1930.95</ele>
        <time>2017-03-03T10:46:46Z</time>
      </trkpt>
      <trkpt lat="46.6519" lon="12.17087">
        <ele>1930.46</ele>
        <time>2017-03-03T10:47:06Z</time>
      </trkpt>
      <trkpt lat="46.65192" lon="12.17089">
        <ele>1930.46</ele>
        <time>2017-03-03T10:47:09Z</time>
      </trkpt>
      <trkpt lat="46.65193" lon="12.17091">
        <ele>1929.98</ele>
        <time>2017-03-03T10:47:10Z</time>
      </trkpt>
      <trkpt lat="46.65216" lon="12.17117">
        <ele>1926.62</ele>
        <time>2017-03-03T10:47:18Z</time>
      </trkpt>
      <trkpt lat="46.65239" lon="12.17138">
        <ele>1922.77</ele>
        <time>2017-03-03T10:47:22Z</time>
      </trkpt>
      <trkpt lat="46.65245" lon="12.17143">
        <ele>1922.77</ele>
        <time>2017-03-03T10:47:23Z</time>
      </trkpt>
      <trkpt lat="46.65256" lon="12.17153">
        <ele>1921.81</ele>
        <time>2017-03-03T10:47:25Z</time>
      </trkpt>
      <trkpt lat="46.65265" lon="12.17161">
        <ele>1917.01</ele>
        <time>2017-03-03T10:47:27Z</time>
      </trkpt>
      <trkpt lat="46.65269" lon="12.17166">
        <ele>1916.04</ele>
        <time>2017-03-03T10:47:28Z</time>
      </trkpt>
      <trkpt lat="46.65276" lon="12.17177">
        <ele>1915.08</ele>
        <time>2017-03-03T10:47:30Z</time>
      </trkpt>
      <trkpt lat="46.65275" lon="12.17197">
        <ele>1911.72</ele>
        <time>2017-03-03T10:47:32Z</time>
      </trkpt>
      <trkpt lat="46.65272" lon="12.1723">
        <ele>1908.83</ele>
        <time>2017-03-03T10:47:35Z</time>
      </trkpt>
      <trkpt lat="46.65269" lon="12.17264">
        <ele>1904.99</ele>
        <time>2017-03-03T10:47:38Z</time>
      </trkpt>
      <trkpt lat="46.65268" lon="12.17274">
        <ele>1904.51</ele>
        <time>2017-03-03T10:47:39Z</time>
      </trkpt>
      <trkpt lat="46.65262" lon="12.17295">
        <ele>1901.63</ele>
        <time>2017-03-03T10:47:41Z</time>
      </trkpt>
      <trkpt lat="46.6526" lon="12.17306">
        <ele>1898.74</ele>
        <time>2017-03-03T10:47:44Z</time>
      </trkpt>
      <trkpt lat="46.65262" lon="12.17304">
        <ele>1898.26</ele>
        <time>2017-03-03T10:47:45Z</time>
      </trkpt>
      <trkpt lat="46.65267" lon="12.17299">
        <ele>1897.3</ele>
        <time>2017-03-03T10:47:46Z</time>
      </trkpt>
      <trkpt lat="46.65271" lon="12.17293">
        <ele>1897.3</ele>
        <time>2017-03-03T10:47:47Z</time>
      </trkpt>
      <trkpt lat="46.65286" lon="12.17261">
        <ele>1893.93</ele>
        <time>2017-03-03T10:47:51Z</time>
      </trkpt>
      <trkpt lat="46.6529" lon="12.17255">
        <ele>1892.49</ele>
        <time>2017-03-03T10:47:52Z</time>
      </trkpt>
      <trkpt lat="46.65302" lon="12.17236">
        <ele>1889.61</ele>
        <time>2017-03-03T10:47:55Z</time>
      </trkpt>
      <trkpt lat="46.65306" lon="12.17231">
        <ele>1890.09</ele>
        <time>2017-03-03T10:47:56Z</time>
      </trkpt>
      <trkpt lat="46.65313" lon="12.17219">
        <ele>1886.72</ele>
        <time>2017-03-03T10:47:58Z</time>
      </trkpt>
      <trkpt lat="46.65325" lon="12.17206">
        <ele>1882.88</ele>
        <time>2017-03-03T10:48:01Z</time>
      </trkpt>
      <trkpt lat="46.65335" lon="12.17197">
        <ele>1880.96</ele>
        <time>2017-03-03T10:48:03Z</time>
      </trkpt>
      <trkpt lat="46.6534" lon="12.17192">
        <ele>1880</ele>
        <time>2017-03-03T10:48:04Z</time>
      </trkpt>
      <trkpt lat="46.65344" lon="12.17184">
        <ele>1879.03</ele>
        <time>2017-03-03T10:48:05Z</time>
      </trkpt>
      <trkpt lat="46.65347" lon="12.17176">
        <ele>1878.07</ele>
        <time>2017-03-03T10:48:06Z</time>
      </trkpt>
      <trkpt lat="46.6535" lon="12.17167">
        <ele>1878.07</ele>
        <time>2017-03-03T10:48:07Z</time>
      </trkpt>
      <trkpt lat="46.65352" lon="12.17157">
        <ele>1877.11</ele>
        <time>2017-03-03T10:48:08Z</time>
      </trkpt>
      <trkpt lat="46.65353" lon="12.17148">
        <ele>1876.15</ele>
        <time>2017-03-03T10:48:09Z</time>
      </trkpt>
      <trkpt lat="46.65353" lon="12.1714">
        <ele>1875.19</ele>
        <time>2017-03-03T10:48:10Z</time>
      </trkpt>
      <trkpt lat="46.65354" lon="12.1713">
        <ele>1874.23</ele>
        <time>2017-03-03T10:48:11Z</time>
      </trkpt>
      <trkpt lat="46.65353" lon="12.17121">
        <ele>1872.79</ele>
        <time>2017-03-03T10:48:12Z</time>
      </trkpt>
      <trkpt lat="46.65351" lon="12.17113">
        <ele>1872.3</ele>
        <time>2017-03-03T10:48:13Z</time>
      </trkpt>
      <trkpt lat="46.6535" lon="12.17105">
        <ele>1871.34</ele>
        <time>2017-03-03T10:48:14Z</time>
      </trkpt>
      <trkpt lat="46.65345" lon="12.17092">
        <ele>1869.9</ele>
        <time>2017-03-03T10:48:16Z</time>
      </trkpt>
      <trkpt lat="46.65342" lon="12.17085">
        <ele>1868.94</ele>
        <time>2017-03-03T10:48:17Z</time>
      </trkpt>
      <trkpt lat="46.65335" lon="12.17072">
        <ele>1867.02</ele>
        <time>2017-03-03T10:48:19Z</time>
      </trkpt>
      <trkpt lat="46.65332" lon="12.17066">
        <ele>1866.54</ele>
        <time>2017-03-03T10:48:20Z</time>
      </trkpt>
      <trkpt lat="46.65329" lon="12.17059">
        <ele>1866.06</ele>
        <time>2017-03-03T10:48:21Z</time>
      </trkpt>
      <trkpt lat="46.65319" lon="12.17042">
        <ele>1863.17</ele>
        <time>2017-03-03T10:48:24Z</time>
      </trkpt>
      <trkpt lat="46.65316" lon="12.17036">
        <ele>1862.21</ele>
        <time>2017-03-03T10:48:25Z</time>
      </trkpt>
      <trkpt lat="46.65313" lon="12.1703">
        <ele>1861.73</ele>
        <time>2017-03-03T10:48:26Z</time>
      </trkpt>
      <trkpt lat="46.65309" lon="12.17024">
        <ele>1860.29</ele>
        <time>2017-03-03T10:48:27Z</time>
      </trkpt>
      <trkpt lat="46.65298" lon="12.17006">
        <ele>1857.4</ele>
        <time>2017-03-03T10:48:30Z</time>
      </trkpt>
      <trkpt lat="46.65296" lon="12.16997">
        <ele>1856.92</ele>
        <time>2017-03-03T10:48:31Z</time>
      </trkpt>
      <trkpt lat="46.65294" lon="12.16989">
        <ele>1855.96</ele>
        <time>2017-03-03T10:48:32Z</time>
      </trkpt>
      <trkpt lat="46.65294" lon="12.1698">
        <ele>1855.48</ele>
        <time>2017-03-03T10:48:33Z</time>
      </trkpt>
      <trkpt lat="46.65296" lon="12.16966">
        <ele>1853.56</ele>
        <time>2017-03-03T10:48:35Z</time>
      </trkpt>
      <trkpt lat="46.65298" lon="12.16958">
        <ele>1852.6</ele>
        <time>2017-03-03T10:48:36Z</time>
      </trkpt>
      <trkpt lat="46.65299" lon="12.16952">
        <ele>1851.64</ele>
        <time>2017-03-03T10:48:37Z</time>
      </trkpt>
      <trkpt lat="46.65304" lon="12.16932">
        <ele>1848.75</ele>
        <time>2017-03-03T10:48:41Z</time>
      </trkpt>
      <trkpt lat="46.65307" lon="12.16913">
        <ele>1846.83</ele>
        <time>2017-03-03T10:48:50Z</time>
      </trkpt>
      <trkpt lat="46.65301" lon="12.16904">
        <ele>1845.87</ele>
        <time>2017-03-03T10:48:54Z</time>
      </trkpt>
      <trkpt lat="46.65313" lon="12.16902">
        <ele>1843.47</ele>
        <time>2017-03-03T10:48:59Z</time>
      </trkpt>
      <trkpt lat="46.65323" lon="12.16922">
        <ele>1841.54</ele>
        <time>2017-03-03T10:49:02Z</time>
      </trkpt>
      <trkpt lat="46.65354" lon="12.16964">
        <ele>1838.18</ele>
        <time>2017-03-03T10:49:09Z</time>
      </trkpt>
      <trkpt lat="46.6537" lon="12.16991">
        <ele>1834.81</ele>
        <time>2017-03-03T10:49:13Z</time>
      </trkpt>
      <trkpt lat="46.65379" lon="12.17006">
        <ele>1833.37</ele>
        <time>2017-03-03T10:49:15Z</time>
      </trkpt>
      <trkpt lat="46.65384" lon="12.17012">
        <ele>1832.41</ele>
        <time>2017-03-03T10:49:16Z</time>
      </trkpt>
      <trkpt lat="46.6539" lon="12.17016">
        <ele>1831.45</ele>
        <time>2017-03-03T10:49:17Z</time>
      </trkpt>
      <trkpt lat="46.65396" lon="12.17019">
        <ele>1830.49</ele>
        <time>2017-03-03T10:49:18Z</time>
      </trkpt>
      <trkpt lat="46.65412" lon="12.17028">
        <ele>1828.08</ele>
        <time>2017-03-03T10:49:20Z</time>
      </trkpt>
      <trkpt lat="46.65427" lon="12.17037">
        <ele>1826.16</ele>
        <time>2017-03-03T10:49:22Z</time>
      </trkpt>
      <trkpt lat="46.65435" lon="12.17039">
        <ele>1824.72</ele>
        <time>2017-03-03T10:49:23Z</time>
      </trkpt>
      <trkpt lat="46.65442" lon="12.17039">
        <ele>1824.24</ele>
        <time>2017-03-03T10:49:24Z</time>
      </trkpt>
      <trkpt lat="46.65456" lon="12.17033">
        <ele>1822.8</ele>
        <time>2017-03-03T10:49:26Z</time>
      </trkpt>
      <trkpt lat="46.65464" lon="12.17029">
        <ele>1822.8</ele>
        <time>2017-03-03T10:49:27Z</time>
      </trkpt>
      <trkpt lat="46.65468" lon="12.17023">
        <ele>1822.8</ele>
        <time>2017-03-03T10:49:28Z</time>
      </trkpt>
      <trkpt lat="46.65472" lon="12.17017">
        <ele>1822.8</ele>
        <time>2017-03-03T10:49:29Z</time>
      </trkpt>
      <trkpt lat="46.65476" lon="12.17013">
        <ele>1822.32</ele>
        <time>2017-03-03T10:49:30Z</time>
      </trkpt>
      <trkpt lat="46.65478" lon="12.17009">
        <ele>1821.84</ele>
        <time>2017-03-03T10:49:31Z</time>
      </trkpt>
      <trkpt lat="46.6548" lon="12.17005">
        <ele>1821.35</ele>
        <time>2017-03-03T10:49:32Z</time>
      </trkpt>
      <trkpt lat="46.65482" lon="12.17001">
        <ele>1820.87</ele>
        <time>2017-03-03T10:49:33Z</time>
      </trkpt>
      <trkpt lat="46.65487" lon="12.16996">
        <ele>1820.87</ele>
        <time>2017-03-03T10:49:34Z</time>
      </trkpt>
      <trkpt lat="46.65496" lon="12.16978">
        <ele>1818.95</ele>
        <time>2017-03-03T10:49:37Z</time>
      </trkpt>
      <trkpt lat="46.655" lon="12.16963">
        <ele>1817.51</ele>
        <time>2017-03-03T10:49:39Z</time>
      </trkpt>
      <trkpt lat="46.65502" lon="12.16951">
        <ele>1816.55</ele>
        <time>2017-03-03T10:49:41Z</time>
      </trkpt>
      <trkpt lat="46.65505" lon="12.16948">
        <ele>1816.07</ele>
        <time>2017-03-03T10:49:42Z</time>
      </trkpt>
      <trkpt lat="46.65511" lon="12.1695">
        <ele>1812.7</ele>
        <time>2017-03-03T10:49:44Z</time>
      </trkpt>
      <trkpt lat="46.65525" lon="12.16964">
        <ele>1811.74</ele>
        <time>2017-03-03T10:49:46Z</time>
      </trkpt>
      <trkpt lat="46.65529" lon="12.16973">
        <ele>1811.26</ele>
        <time>2017-03-03T10:49:47Z</time>
      </trkpt>
      <trkpt lat="46.65533" lon="12.1698">
        <ele>1809.82</ele>
        <time>2017-03-03T10:49:48Z</time>
      </trkpt>
      <trkpt lat="46.65543" lon="12.16992">
        <ele>1808.86</ele>
        <time>2017-03-03T10:49:50Z</time>
      </trkpt>
      <trkpt lat="46.65546" lon="12.16995">
        <ele>1808.38</ele>
        <time>2017-03-03T10:49:51Z</time>
      </trkpt>
      <trkpt lat="46.65554" lon="12.16991">
        <ele>1805.97</ele>
        <time>2017-03-03T10:49:54Z</time>
      </trkpt>
      <trkpt lat="46.65561" lon="12.16995">
        <ele>1805.49</ele>
        <time>2017-03-03T10:49:55Z</time>
      </trkpt>
      <trkpt lat="46.65594" lon="12.17014">
        <ele>1801.65</ele>
        <time>2017-03-03T10:49:59Z</time>
      </trkpt>
      <trkpt lat="46.65611" lon="12.17019">
        <ele>1801.65</ele>
        <time>2017-03-03T10:50:01Z</time>
      </trkpt>
      <trkpt lat="46.6562" lon="12.17048">
        <ele>1798.28</ele>
        <time>2017-03-03T10:50:07Z</time>
      </trkpt>
      <trkpt lat="46.65613" lon="12.17056">
        <ele>1798.76</ele>
        <time>2017-03-03T10:50:10Z</time>
      </trkpt>
      <trkpt lat="46.65613" lon="12.17054">
        <ele>1798.76</ele>
        <time>2017-03-03T10:50:12Z</time>
      </trkpt>
      <trkpt lat="46.65604" lon="12.17037">
        <ele>1797.8</ele>
        <time>2017-03-03T10:50:17Z</time>
      </trkpt>
      <trkpt lat="46.65602" lon="12.17028">
        <ele>1797.32</ele>
        <time>2017-03-03T10:50:19Z</time>
      </trkpt>
      <trkpt lat="46.65599" lon="12.17015">
        <ele>1795.88</ele>
        <time>2017-03-03T10:50:20Z</time>
      </trkpt>
      <trkpt lat="46.65598" lon="12.17008">
        <ele>1795.4</ele>
        <time>2017-03-03T10:50:21Z</time>
      </trkpt>
      <trkpt lat="46.65596" lon="12.17002">
        <ele>1794.92</ele>
        <time>2017-03-03T10:50:22Z</time>
      </trkpt>
      <trkpt lat="46.65596" lon="12.16983">
        <ele>1793.48</ele>
        <time>2017-03-03T10:50:25Z</time>
      </trkpt>
      <trkpt lat="46.65596" lon="12.16976">
        <ele>1793.48</ele>
        <time>2017-03-03T10:50:26Z</time>
      </trkpt>
      <trkpt lat="46.65596" lon="12.16968">
        <ele>1793</ele>
        <time>2017-03-03T10:50:27Z</time>
      </trkpt>
      <trkpt lat="46.65597" lon="12.16961">
        <ele>1792.03</ele>
        <time>2017-03-03T10:50:28Z</time>
      </trkpt>
      <trkpt lat="46.65599" lon="12.16953">
        <ele>1792.03</ele>
        <time>2017-03-03T10:50:29Z</time>
      </trkpt>
      <trkpt lat="46.65603" lon="12.16946">
        <ele>1789.63</ele>
        <time>2017-03-03T10:50:30Z</time>
      </trkpt>
      <trkpt lat="46.65607" lon="12.16941">
        <ele>1788.67</ele>
        <time>2017-03-03T10:50:31Z</time>
      </trkpt>
      <trkpt lat="46.65611" lon="12.16936">
        <ele>1788.67</ele>
        <time>2017-03-03T10:50:32Z</time>
      </trkpt>
      <trkpt lat="46.65615" lon="12.16933">
        <ele>1788.19</ele>
        <time>2017-03-03T10:50:33Z</time>
      </trkpt>
      <trkpt lat="46.65629" lon="12.16924">
        <ele>1787.23</ele>
        <time>2017-03-03T10:50:36Z</time>
      </trkpt>
      <trkpt lat="46.6564" lon="12.16911">
        <ele>1784.34</ele>
        <time>2017-03-03T10:50:39Z</time>
      </trkpt>
      <trkpt lat="46.65651" lon="12.16904">
        <ele>1782.9</ele>
        <time>2017-03-03T10:50:47Z</time>
      </trkpt>
      <trkpt lat="46.65643" lon="12.16908">
        <ele>1783.86</ele>
        <time>2017-03-03T10:51:13Z</time>
      </trkpt>
      <trkpt lat="46.65638" lon="12.16906">
        <ele>1783.38</ele>
        <time>2017-03-03T10:51:27Z</time>
      </trkpt>
      <trkpt lat="46.65647" lon="12.16883">
        <ele>1780.5</ele>
        <time>2017-03-03T10:51:38Z</time>
      </trkpt>
      <trkpt lat="46.65644" lon="12.16879">
        <ele>1780.5</ele>
        <time>2017-03-03T10:51:53Z</time>
      </trkpt>
      <trkpt lat="46.65641" lon="12.16878">
        <ele>1780.5</ele>
        <time>2017-03-03T10:52:08Z</time>
      </trkpt>
      <trkpt lat="46.65642" lon="12.16877">
        <ele>1780.5</ele>
        <time>2017-03-03T10:52:09Z</time>
      </trkpt>
      <trkpt lat="46.65643" lon="12.16876">
        <ele>1780.02</ele>
        <time>2017-03-03T10:52:10Z</time>
      </trkpt>
      <trkpt lat="46.65658" lon="12.16865">
        <ele>1778.58</ele>
        <time>2017-03-03T10:52:15Z</time>
      </trkpt>
      <trkpt lat="46.65665" lon="12.16855">
        <ele>1777.61</ele>
        <time>2017-03-03T10:52:17Z</time>
      </trkpt>
      <trkpt lat="46.65669" lon="12.1685">
        <ele>1777.13</ele>
        <time>2017-03-03T10:52:18Z</time>
      </trkpt>
      <trkpt lat="46.65672" lon="12.16845">
        <ele>1777.13</ele>
        <time>2017-03-03T10:52:19Z</time>
      </trkpt>
      <trkpt lat="46.65675" lon="12.16839">
        <ele>1776.65</ele>
        <time>2017-03-03T10:52:20Z</time>
      </trkpt>
      <trkpt lat="46.65678" lon="12.16833">
        <ele>1776.17</ele>
        <time>2017-03-03T10:52:21Z</time>
      </trkpt>
      <trkpt lat="46.65681" lon="12.16827">
        <ele>1775.69</ele>
        <time>2017-03-03T10:52:22Z</time>
      </trkpt>
      <trkpt lat="46.65685" lon="12.16806">
        <ele>1774.25</ele>
        <time>2017-03-03T10:52:25Z</time>
      </trkpt>
      <trkpt lat="46.65684" lon="12.16792">
        <ele>1772.81</ele>
        <time>2017-03-03T10:52:27Z</time>
      </trkpt>
      <trkpt lat="46.65685" lon="12.16785">
        <ele>1772.81</ele>
        <time>2017-03-03T10:52:28Z</time>
      </trkpt>
      <trkpt lat="46.65684" lon="12.16778">
        <ele>1771.85</ele>
        <time>2017-03-03T10:52:29Z</time>
      </trkpt>
      <trkpt lat="46.65683" lon="12.1677">
        <ele>1771.37</ele>
        <time>2017-03-03T10:52:30Z</time>
      </trkpt>
      <trkpt lat="46.65682" lon="12.16763">
        <ele>1770.89</ele>
        <time>2017-03-03T10:52:31Z</time>
      </trkpt>
      <trkpt lat="46.6568" lon="12.16738">
        <ele>1769.92</ele>
        <time>2017-03-03T10:52:34Z</time>
      </trkpt>
      <trkpt lat="46.65681" lon="12.1673">
        <ele>1768.96</ele>
        <time>2017-03-03T10:52:35Z</time>
      </trkpt>
      <trkpt lat="46.65684" lon="12.16723">
        <ele>1767.52</ele>
        <time>2017-03-03T10:52:36Z</time>
      </trkpt>
      <trkpt lat="46.65687" lon="12.16719">
        <ele>1767.04</ele>
        <time>2017-03-03T10:52:37Z</time>
      </trkpt>
      <trkpt lat="46.6569" lon="12.16716">
        <ele>1767.04</ele>
        <time>2017-03-03T10:52:38Z</time>
      </trkpt>
      <trkpt lat="46.65694" lon="12.16717">
        <ele>1766.56</ele>
        <time>2017-03-03T10:52:39Z</time>
      </trkpt>
      <trkpt lat="46.65697" lon="12.16718">
        <ele>1766.08</ele>
        <time>2017-03-03T10:52:40Z</time>
      </trkpt>
      <trkpt lat="46.65707" lon="12.16721">
        <ele>1765.6</ele>
        <time>2017-03-03T10:52:42Z</time>
      </trkpt>
      <trkpt lat="46.65712" lon="12.16719">
        <ele>1765.12</ele>
        <time>2017-03-03T10:52:43Z</time>
      </trkpt>
      <trkpt lat="46.65716" lon="12.16718">
        <ele>1764.64</ele>
        <time>2017-03-03T10:52:44Z</time>
      </trkpt>
      <trkpt lat="46.65718" lon="12.16715">
        <ele>1764.64</ele>
        <time>2017-03-03T10:52:45Z</time>
      </trkpt>
      <trkpt lat="46.65719" lon="12.16713">
        <ele>1765.12</ele>
        <time>2017-03-03T10:52:46Z</time>
      </trkpt>
      <trkpt lat="46.65725" lon="12.16703">
        <ele>1766.08</ele>
        <time>2017-03-03T10:52:59Z</time>
      </trkpt>
      <trkpt lat="46.65731" lon="12.16694">
        <ele>1767.04</ele>
        <time>2017-03-03T10:53:16Z</time>
      </trkpt>
      <trkpt lat="46.65732" lon="12.1669">
        <ele>1767.04</ele>
        <time>2017-03-03T10:53:34Z</time>
      </trkpt>
      <trkpt lat="46.65733" lon="12.16691">
        <ele>1767.52</ele>
        <time>2017-03-03T10:53:53Z</time>
      </trkpt>
      <trkpt lat="46.65743" lon="12.16684">
        <ele>1769.44</ele>
        <time>2017-03-03T10:54:11Z</time>
      </trkpt>
      <trkpt lat="46.65745" lon="12.16681">
        <ele>1769.92</ele>
        <time>2017-03-03T10:54:16Z</time>
      </trkpt>
      <trkpt lat="46.65757" lon="12.16678">
        <ele>1770.41</ele>
        <time>2017-03-03T10:54:31Z</time>
      </trkpt>
      <trkpt lat="46.65769" lon="12.16673">
        <ele>1771.37</ele>
        <time>2017-03-03T10:54:46Z</time>
      </trkpt>
      <trkpt lat="46.6578" lon="12.16668">
        <ele>1771.85</ele>
        <time>2017-03-03T10:55:02Z</time>
      </trkpt>
      <trkpt lat="46.65791" lon="12.16662">
        <ele>1772.81</ele>
        <time>2017-03-03T10:55:19Z</time>
      </trkpt>
      <trkpt lat="46.65804" lon="12.16663">
        <ele>1772.81</ele>
        <time>2017-03-03T10:55:35Z</time>
      </trkpt>
      <trkpt lat="46.65815" lon="12.16663">
        <ele>1773.29</ele>
        <time>2017-03-03T10:55:51Z</time>
      </trkpt>
      <trkpt lat="46.65824" lon="12.16661">
        <ele>1772.81</ele>
        <time>2017-03-03T10:56:10Z</time>
      </trkpt>
      <trkpt lat="46.65821" lon="12.16661">
        <ele>1772.81</ele>
        <time>2017-03-03T10:56:28Z</time>
      </trkpt>
      <trkpt lat="46.65821" lon="12.16663">
        <ele>1772.81</ele>
        <time>2017-03-03T10:56:51Z</time>
      </trkpt>
      <trkpt lat="46.65828" lon="12.16654">
        <ele>1773.77</ele>
        <time>2017-03-03T10:57:06Z</time>
      </trkpt>
      <trkpt lat="46.65835" lon="12.1664">
        <ele>1775.69</ele>
        <time>2017-03-03T10:57:23Z</time>
      </trkpt>
      <trkpt lat="46.65848" lon="12.16629">
        <ele>1777.13</ele>
        <time>2017-03-03T10:57:41Z</time>
      </trkpt>
      <trkpt lat="46.65856" lon="12.16613">
        <ele>1779.54</ele>
        <time>2017-03-03T10:57:59Z</time>
      </trkpt>
      <trkpt lat="46.65862" lon="12.16599">
        <ele>1780.5</ele>
        <time>2017-03-03T10:58:17Z</time>
      </trkpt>
      <trkpt lat="46.65873" lon="12.16595">
        <ele>1782.42</ele>
        <time>2017-03-03T10:58:36Z</time>
      </trkpt>
      <trkpt lat="46.65886" lon="12.16596">
        <ele>1785.31</ele>
        <time>2017-03-03T10:58:51Z</time>
      </trkpt>
      <trkpt lat="46.65903" lon="12.1661">
        <ele>1784.34</ele>
        <time>2017-03-03T10:59:10Z</time>
      </trkpt>
      <trkpt lat="46.65904" lon="12.16615">
        <ele>1784.34</ele>
        <time>2017-03-03T10:59:27Z</time>
      </trkpt>
      <trkpt lat="46.65901" lon="12.16617">
        <ele>1784.82</ele>
        <time>2017-03-03T10:59:52Z</time>
      </trkpt>
      <trkpt lat="46.65901" lon="12.16617">
        <ele>1784.82</ele>
        <time>2017-03-03T11:00:12Z</time>
      </trkpt>
      <trkpt lat="46.65904" lon="12.1662">
        <ele>1784.82</ele>
        <time>2017-03-03T11:00:36Z</time>
      </trkpt>
      <trkpt lat="46.65909" lon="12.16605">
        <ele>1784.82</ele>
        <time>2017-03-03T11:00:59Z</time>
      </trkpt>
      <trkpt lat="46.65914" lon="12.16613">
        <ele>1784.82</ele>
        <time>2017-03-03T11:01:21Z</time>
      </trkpt>
      <trkpt lat="46.65927" lon="12.16614">
        <ele>1783.86</ele>
        <time>2017-03-03T11:01:32Z</time>
      </trkpt>
      <trkpt lat="46.65928" lon="12.16613">
        <ele>1783.86</ele>
        <time>2017-03-03T11:01:33Z</time>
      </trkpt>
      <trkpt lat="46.6593" lon="12.16611">
        <ele>1783.38</ele>
        <time>2017-03-03T11:01:34Z</time>
      </trkpt>
      <trkpt lat="46.65932" lon="12.16609">
        <ele>1783.38</ele>
        <time>2017-03-03T11:01:35Z</time>
      </trkpt>
      <trkpt lat="46.65935" lon="12.16607">
        <ele>1783.38</ele>
        <time>2017-03-03T11:01:36Z</time>
      </trkpt>
      <trkpt lat="46.65965" lon="12.1657">
        <ele>1781.46</ele>
        <time>2017-03-03T11:01:49Z</time>
      </trkpt>
      <trkpt lat="46.65985" lon="12.16551">
        <ele>1780.5</ele>
        <time>2017-03-03T11:02:03Z</time>
      </trkpt>
      <trkpt lat="46.66012" lon="12.16529">
        <ele>1780.02</ele>
        <time>2017-03-03T11:02:16Z</time>
      </trkpt>
      <trkpt lat="46.66021" lon="12.1651">
        <ele>1780.5</ele>
        <time>2017-03-03T11:02:31Z</time>
      </trkpt>
      <trkpt lat="46.66034" lon="12.16488">
        <ele>1780.02</ele>
        <time>2017-03-03T11:02:47Z</time>
      </trkpt>
      <trkpt lat="46.66061" lon="12.16468">
        <ele>1778.1</ele>
        <time>2017-03-03T11:02:56Z</time>
      </trkpt>
      <trkpt lat="46.66083" lon="12.16456">
        <ele>1777.61</ele>
        <time>2017-03-03T11:03:08Z</time>
      </trkpt>
      <trkpt lat="46.66098" lon="12.16451">
        <ele>1778.58</ele>
        <time>2017-03-03T11:03:28Z</time>
      </trkpt>
      <trkpt lat="46.6612" lon="12.16442">
        <ele>1779.06</ele>
        <time>2017-03-03T11:03:46Z</time>
      </trkpt>
      <trkpt lat="46.6614" lon="12.16439">
        <ele>1778.1</ele>
        <time>2017-03-03T11:04:03Z</time>
      </trkpt>
      <trkpt lat="46.66166" lon="12.16428">
        <ele>1777.61</ele>
        <time>2017-03-03T11:04:19Z</time>
      </trkpt>
      <trkpt lat="46.66192" lon="12.16399">
        <ele>1774.25</ele>
        <time>2017-03-03T11:04:28Z</time>
      </trkpt>
      <trkpt lat="46.66217" lon="12.16402">
        <ele>1772.81</ele>
        <time>2017-03-03T11:04:36Z</time>
      </trkpt>
      <trkpt lat="46.6624" lon="12.16399">
        <ele>1771.37</ele>
        <time>2017-03-03T11:04:50Z</time>
      </trkpt>
      <trkpt lat="46.66281" lon="12.16376">
        <ele>1768.48</ele>
        <time>2017-03-03T11:05:01Z</time>
      </trkpt>
      <trkpt lat="46.66304" lon="12.16367">
        <ele>1767.04</ele>
        <time>2017-03-03T11:05:05Z</time>
      </trkpt>
      <trkpt lat="46.66335" lon="12.16346">
        <ele>1764.64</ele>
        <time>2017-03-03T11:05:13Z</time>
      </trkpt>
      <trkpt lat="46.66348" lon="12.1633">
        <ele>1763.2</ele>
        <time>2017-03-03T11:05:17Z</time>
      </trkpt>
      <trkpt lat="46.66359" lon="12.16315">
        <ele>1761.75</ele>
        <time>2017-03-03T11:05:20Z</time>
      </trkpt>
      <trkpt lat="46.66363" lon="12.16311">
        <ele>1761.27</ele>
        <time>2017-03-03T11:05:21Z</time>
      </trkpt>
      <trkpt lat="46.66378" lon="12.163">
        <ele>1757.91</ele>
        <time>2017-03-03T11:05:24Z</time>
      </trkpt>
      <trkpt lat="46.66396" lon="12.16288">
        <ele>1754.54</ele>
        <time>2017-03-03T11:05:27Z</time>
      </trkpt>
      <trkpt lat="46.66403" lon="12.16286">
        <ele>1753.1</ele>
        <time>2017-03-03T11:05:28Z</time>
      </trkpt>
      <trkpt lat="46.6647" lon="12.16289">
        <ele>1752.14</ele>
        <time>2017-03-03T11:05:39Z</time>
      </trkpt>
      <trkpt lat="46.66482" lon="12.16314">
        <ele>1753.1</ele>
        <time>2017-03-03T11:05:52Z</time>
      </trkpt>
      <trkpt lat="46.66483" lon="12.16328">
        <ele>1754.06</ele>
        <time>2017-03-03T11:06:07Z</time>
      </trkpt>
      <trkpt lat="46.66496" lon="12.16337">
        <ele>1754.54</ele>
        <time>2017-03-03T11:06:24Z</time>
      </trkpt>
      <trkpt lat="46.66509" lon="12.16338">
        <ele>1755.02</ele>
        <time>2017-03-03T11:06:42Z</time>
      </trkpt>
      <trkpt lat="46.66522" lon="12.16343">
        <ele>1755.99</ele>
        <time>2017-03-03T11:06:57Z</time>
      </trkpt>
      <trkpt lat="46.66537" lon="12.16354">
        <ele>1756.47</ele>
        <time>2017-03-03T11:07:11Z</time>
      </trkpt>
      <trkpt lat="46.66547" lon="12.16362">
        <ele>1757.43</ele>
        <time>2017-03-03T11:07:26Z</time>
      </trkpt>
      <trkpt lat="46.66552" lon="12.16376">
        <ele>1757.91</ele>
        <time>2017-03-03T11:07:41Z</time>
      </trkpt>
      <trkpt lat="46.66554" lon="12.16385">
        <ele>1758.87</ele>
        <time>2017-03-03T11:07:55Z</time>
      </trkpt>
      <trkpt lat="46.66555" lon="12.16388">
        <ele>1758.39</ele>
        <time>2017-03-03T11:08:14Z</time>
      </trkpt>
      <trkpt lat="46.66566" lon="12.16396">
        <ele>1756.95</ele>
        <time>2017-03-03T11:08:17Z</time>
      </trkpt>
      <trkpt lat="46.66576" lon="12.164">
        <ele>1755.5</ele>
        <time>2017-03-03T11:08:19Z</time>
      </trkpt>
      <trkpt lat="46.6658" lon="12.164">
        <ele>1755.5</ele>
        <time>2017-03-03T11:08:20Z</time>
      </trkpt>
      <trkpt lat="46.66585" lon="12.164">
        <ele>1755.02</ele>
        <time>2017-03-03T11:08:21Z</time>
      </trkpt>
      <trkpt lat="46.6659" lon="12.164">
        <ele>1754.54</ele>
        <time>2017-03-03T11:08:22Z</time>
      </trkpt>
      <trkpt lat="46.66595" lon="12.16398">
        <ele>1754.06</ele>
        <time>2017-03-03T11:08:23Z</time>
      </trkpt>
      <trkpt lat="46.66599" lon="12.16395">
        <ele>1753.1</ele>
        <time>2017-03-03T11:08:24Z</time>
      </trkpt>
      <trkpt lat="46.66604" lon="12.16393">
        <ele>1752.14</ele>
        <time>2017-03-03T11:08:25Z</time>
      </trkpt>
      <trkpt lat="46.66609" lon="12.16391">
        <ele>1751.66</ele>
        <time>2017-03-03T11:08:26Z</time>
      </trkpt>
      <trkpt lat="46.66614" lon="12.16388">
        <ele>1750.7</ele>
        <time>2017-03-03T11:08:27Z</time>
      </trkpt>
      <trkpt lat="46.66626" lon="12.16392">
        <ele>1748.29</ele>
        <time>2017-03-03T11:08:34Z</time>
      </trkpt>
      <trkpt lat="46.66627" lon="12.16391">
        <ele>1748.29</ele>
        <time>2017-03-03T11:08:54Z</time>
      </trkpt>
      <trkpt lat="46.66633" lon="12.16392">
        <ele>1747.33</ele>
        <time>2017-03-03T11:09:18Z</time>
      </trkpt>
      <trkpt lat="46.6663" lon="12.16352">
        <ele>1743.49</ele>
        <time>2017-03-03T11:09:25Z</time>
      </trkpt>
      <trkpt lat="46.66624" lon="12.16329">
        <ele>1740.12</ele>
        <time>2017-03-03T11:09:27Z</time>
      </trkpt>
      <trkpt lat="46.66622" lon="12.1632">
        <ele>1739.16</ele>
        <time>2017-03-03T11:09:28Z</time>
      </trkpt>
      <trkpt lat="46.66619" lon="12.16306">
        <ele>1736.76</ele>
        <time>2017-03-03T11:09:30Z</time>
      </trkpt>
      <trkpt lat="46.66619" lon="12.16295">
        <ele>1735.32</ele>
        <time>2017-03-03T11:09:31Z</time>
      </trkpt>
      <trkpt lat="46.66616" lon="12.16285">
        <ele>1734.84</ele>
        <time>2017-03-03T11:09:32Z</time>
      </trkpt>
      <trkpt lat="46.66615" lon="12.16267">
        <ele>1732.91</ele>
        <time>2017-03-03T11:09:34Z</time>
      </trkpt>
      <trkpt lat="46.66614" lon="12.16259">
        <ele>1731.47</ele>
        <time>2017-03-03T11:09:35Z</time>
      </trkpt>
      <trkpt lat="46.66613" lon="12.16251">
        <ele>1730.51</ele>
        <time>2017-03-03T11:09:36Z</time>
      </trkpt>
      <trkpt lat="46.66612" lon="12.16245">
        <ele>1729.55</ele>
        <time>2017-03-03T11:09:37Z</time>
      </trkpt>
      <trkpt lat="46.66611" lon="12.16237">
        <ele>1728.59</ele>
        <time>2017-03-03T11:09:38Z</time>
      </trkpt>
      <trkpt lat="46.66613" lon="12.16221">
        <ele>1727.15</ele>
        <time>2017-03-03T11:09:39Z</time>
      </trkpt>
      <trkpt lat="46.66622" lon="12.162">
        <ele>1725.22</ele>
        <time>2017-03-03T11:09:42Z</time>
      </trkpt>
      <trkpt lat="46.66626" lon="12.16195">
        <ele>1723.3</ele>
        <time>2017-03-03T11:09:43Z</time>
      </trkpt>
      <trkpt lat="46.66634" lon="12.16197">
        <ele>1721.86</ele>
        <time>2017-03-03T11:09:45Z</time>
      </trkpt>
      <trkpt lat="46.66638" lon="12.16199">
        <ele>1721.38</ele>
        <time>2017-03-03T11:09:46Z</time>
      </trkpt>
      <trkpt lat="46.66647" lon="12.16202">
        <ele>1719.46</ele>
        <time>2017-03-03T11:09:48Z</time>
      </trkpt>
      <trkpt lat="46.66652" lon="12.16203">
        <ele>1719.46</ele>
        <time>2017-03-03T11:09:49Z</time>
      </trkpt>
      <trkpt lat="46.6668" lon="12.1621">
        <ele>1714.17</ele>
        <time>2017-03-03T11:09:55Z</time>
      </trkpt>
      <trkpt lat="46.66697" lon="12.16205">
        <ele>1712.25</ele>
        <time>2017-03-03T11:09:57Z</time>
      </trkpt>
      <trkpt lat="46.66706" lon="12.16201">
        <ele>1711.28</ele>
        <time>2017-03-03T11:09:58Z</time>
      </trkpt>
      <trkpt lat="46.66727" lon="12.1619">
        <ele>1708.4</ele>
        <time>2017-03-03T11:10:01Z</time>
      </trkpt>
      <trkpt lat="46.66732" lon="12.16186">
        <ele>1708.88</ele>
        <time>2017-03-03T11:10:02Z</time>
      </trkpt>
      <trkpt lat="46.66736" lon="12.16181">
        <ele>1707.92</ele>
        <time>2017-03-03T11:10:03Z</time>
      </trkpt>
      <trkpt lat="46.66739" lon="12.16175">
        <ele>1706.96</ele>
        <time>2017-03-03T11:10:04Z</time>
      </trkpt>
      <trkpt lat="46.66742" lon="12.16168">
        <ele>1706.96</ele>
        <time>2017-03-03T11:10:05Z</time>
      </trkpt>
      <trkpt lat="46.66745" lon="12.1616">
        <ele>1706.48</ele>
        <time>2017-03-03T11:10:06Z</time>
      </trkpt>
      <trkpt lat="46.66753" lon="12.16128">
        <ele>1703.59</ele>
        <time>2017-03-03T11:10:09Z</time>
      </trkpt>
      <trkpt lat="46.66759" lon="12.16111">
        <ele>1702.63</ele>
        <time>2017-03-03T11:10:11Z</time>
      </trkpt>
      <trkpt lat="46.66763" lon="12.16101">
        <ele>1701.67</ele>
        <time>2017-03-03T11:10:12Z</time>
      </trkpt>
      <trkpt lat="46.6677" lon="12.16087">
        <ele>1700.71</ele>
        <time>2017-03-03T11:10:14Z</time>
      </trkpt>
      <trkpt lat="46.66773" lon="12.16083">
        <ele>1700.23</ele>
        <time>2017-03-03T11:10:15Z</time>
      </trkpt>
      <trkpt lat="46.66776" lon="12.16079">
        <ele>1699.27</ele>
        <time>2017-03-03T11:10:16Z</time>
      </trkpt>
      <trkpt lat="46.6678" lon="12.16076">
        <ele>1699.27</ele>
        <time>2017-03-03T11:10:17Z</time>
      </trkpt>
      <trkpt lat="46.66795" lon="12.16059">
        <ele>1698.31</ele>
        <time>2017-03-03T11:10:21Z</time>
      </trkpt>
      <trkpt lat="46.66802" lon="12.16045">
        <ele>1696.38</ele>
        <time>2017-03-03T11:10:23Z</time>
      </trkpt>
      <trkpt lat="46.66805" lon="12.16036">
        <ele>1695.42</ele>
        <time>2017-03-03T11:10:24Z</time>
      </trkpt>
      <trkpt lat="46.6681" lon="12.16019">
        <ele>1694.46</ele>
        <time>2017-03-03T11:10:26Z</time>
      </trkpt>
      <trkpt lat="46.66815" lon="12.16001">
        <ele>1691.1</ele>
        <time>2017-03-03T11:10:27Z</time>
      </trkpt>
      <trkpt lat="46.66818" lon="12.15987">
        <ele>1689.17</ele>
        <time>2017-03-03T11:10:29Z</time>
      </trkpt>
      <trkpt lat="46.66821" lon="12.15976">
        <ele>1688.21</ele>
        <time>2017-03-03T11:10:31Z</time>
      </trkpt>
      <trkpt lat="46.66825" lon="12.15974">
        <ele>1688.21</ele>
        <time>2017-03-03T11:10:32Z</time>
      </trkpt>
      <trkpt lat="46.66829" lon="12.1597">
        <ele>1687.25</ele>
        <time>2017-03-03T11:10:33Z</time>
      </trkpt>
      <trkpt lat="46.66832" lon="12.15965">
        <ele>1686.29</ele>
        <time>2017-03-03T11:10:34Z</time>
      </trkpt>
      <trkpt lat="46.66841" lon="12.15958">
        <ele>1684.85</ele>
        <time>2017-03-03T11:10:36Z</time>
      </trkpt>
      <trkpt lat="46.66846" lon="12.15948">
        <ele>1683.41</ele>
        <time>2017-03-03T11:10:38Z</time>
      </trkpt>
      <trkpt lat="46.66856" lon="12.15933">
        <ele>1679.56</ele>
        <time>2017-03-03T11:10:41Z</time>
      </trkpt>
      <trkpt lat="46.66865" lon="12.1592">
        <ele>1678.12</ele>
        <time>2017-03-03T11:10:43Z</time>
      </trkpt>
      <trkpt lat="46.66875" lon="12.15896">
        <ele>1676.2</ele>
        <time>2017-03-03T11:10:46Z</time>
      </trkpt>
      <trkpt lat="46.66878" lon="12.15889">
        <ele>1675.72</ele>
        <time>2017-03-03T11:10:47Z</time>
      </trkpt>
      <trkpt lat="46.66888" lon="12.1587">
        <ele>1674.27</ele>
        <time>2017-03-03T11:10:50Z</time>
      </trkpt>
      <trkpt lat="46.66897" lon="12.15857">
        <ele>1672.35</ele>
        <time>2017-03-03T11:10:52Z</time>
      </trkpt>
      <trkpt lat="46.66899" lon="12.15854">
        <ele>1671.87</ele>
        <time>2017-03-03T11:10:53Z</time>
      </trkpt>
      <trkpt lat="46.66908" lon="12.15843">
        <ele>1670.43</ele>
        <time>2017-03-03T11:10:55Z</time>
      </trkpt>
      <trkpt lat="46.66916" lon="12.15831">
        <ele>1669.95</ele>
        <time>2017-03-03T11:10:57Z</time>
      </trkpt>
      <trkpt lat="46.6692" lon="12.15824">
        <ele>1669.95</ele>
        <time>2017-03-03T11:10:58Z</time>
      </trkpt>
      <trkpt lat="46.66928" lon="12.15806">
        <ele>1665.62</ele>
        <time>2017-03-03T11:11:00Z</time>
      </trkpt>
      <trkpt lat="46.66936" lon="12.15791">
        <ele>1663.7</ele>
        <time>2017-03-03T11:11:02Z</time>
      </trkpt>
      <trkpt lat="46.6694" lon="12.15781">
        <ele>1661.78</ele>
        <time>2017-03-03T11:11:03Z</time>
      </trkpt>
      <trkpt lat="46.66951" lon="12.15758">
        <ele>1658.41</ele>
        <time>2017-03-03T11:11:07Z</time>
      </trkpt>
      <trkpt lat="46.66955" lon="12.15751">
        <ele>1656.97</ele>
        <time>2017-03-03T11:11:08Z</time>
      </trkpt>
      <trkpt lat="46.66959" lon="12.15746">
        <ele>1655.53</ele>
        <time>2017-03-03T11:11:09Z</time>
      </trkpt>
      <trkpt lat="46.66964" lon="12.15742">
        <ele>1654.57</ele>
        <time>2017-03-03T11:11:10Z</time>
      </trkpt>
      <trkpt lat="46.66976" lon="12.15728">
        <ele>1651.2</ele>
        <time>2017-03-03T11:11:14Z</time>
      </trkpt>
      <trkpt lat="46.66976" lon="12.15735">
        <ele>1647.84</ele>
        <time>2017-03-03T11:11:18Z</time>
      </trkpt>
      <trkpt lat="46.66974" lon="12.15737">
        <ele>1647.84</ele>
        <time>2017-03-03T11:11:19Z</time>
      </trkpt>
      <trkpt lat="46.66973" lon="12.15738">
        <ele>1651.68</ele>
        <time>2017-03-03T11:11:20Z</time>
      </trkpt>
      <trkpt lat="46.66972" lon="12.1574">
        <ele>1649.76</ele>
        <time>2017-03-03T11:11:21Z</time>
      </trkpt>
      <trkpt lat="46.66971" lon="12.15746">
        <ele>1650.24</ele>
        <time>2017-03-03T11:11:29Z</time>
      </trkpt>
      <trkpt lat="46.66982" lon="12.1573">
        <ele>1648.32</ele>
        <time>2017-03-03T11:11:34Z</time>
      </trkpt>
      <trkpt lat="46.66986" lon="12.15725">
        <ele>1647.36</ele>
        <time>2017-03-03T11:11:35Z</time>
      </trkpt>
      <trkpt lat="46.66995" lon="12.15714">
        <ele>1645.91</ele>
        <time>2017-03-03T11:11:37Z</time>
      </trkpt>
      <trkpt lat="46.67009" lon="12.15696">
        <ele>1643.51</ele>
        <time>2017-03-03T11:11:40Z</time>
      </trkpt>
      <trkpt lat="46.67013" lon="12.1569">
        <ele>1642.55</ele>
        <time>2017-03-03T11:11:41Z</time>
      </trkpt>
      <trkpt lat="46.67018" lon="12.15686">
        <ele>1641.59</ele>
        <time>2017-03-03T11:11:42Z</time>
      </trkpt>
      <trkpt lat="46.67023" lon="12.15681">
        <ele>1640.15</ele>
        <time>2017-03-03T11:11:43Z</time>
      </trkpt>
      <trkpt lat="46.67034" lon="12.15672">
        <ele>1638.22</ele>
        <time>2017-03-03T11:11:45Z</time>
      </trkpt>
      <trkpt lat="46.67054" lon="12.15657">
        <ele>1634.38</ele>
        <time>2017-03-03T11:11:48Z</time>
      </trkpt>
      <trkpt lat="46.67059" lon="12.15652">
        <ele>1633.9</ele>
        <time>2017-03-03T11:11:49Z</time>
      </trkpt>
      <trkpt lat="46.67067" lon="12.15645">
        <ele>1632.46</ele>
        <time>2017-03-03T11:11:50Z</time>
      </trkpt>
      <trkpt lat="46.67077" lon="12.15632">
        <ele>1630.05</ele>
        <time>2017-03-03T11:11:52Z</time>
      </trkpt>
      <trkpt lat="46.67081" lon="12.15625">
        <ele>1629.09</ele>
        <time>2017-03-03T11:11:53Z</time>
      </trkpt>
      <trkpt lat="46.67083" lon="12.15619">
        <ele>1627.65</ele>
        <time>2017-03-03T11:11:54Z</time>
      </trkpt>
      <trkpt lat="46.67086" lon="12.15606">
        <ele>1625.73</ele>
        <time>2017-03-03T11:11:56Z</time>
      </trkpt>
      <trkpt lat="46.67087" lon="12.15599">
        <ele>1624.28</ele>
        <time>2017-03-03T11:11:57Z</time>
      </trkpt>
      <trkpt lat="46.67089" lon="12.15594">
        <ele>1622.84</ele>
        <time>2017-03-03T11:11:58Z</time>
      </trkpt>
      <trkpt lat="46.67086" lon="12.15584">
        <ele>1622.36</ele>
        <time>2017-03-03T11:12:06Z</time>
      </trkpt>
      <trkpt lat="46.67086" lon="12.15588">
        <ele>1622.36</ele>
        <time>2017-03-03T11:12:24Z</time>
      </trkpt>
      <trkpt lat="46.67054" lon="12.15588">
        <ele>1622.36</ele>
        <time>2017-03-03T11:12:52Z</time>
      </trkpt>
      <trkpt lat="46.67054" lon="12.15584">
        <ele>1622.36</ele>
        <time>2017-03-03T11:12:55Z</time>
      </trkpt>
      <trkpt lat="46.67053" lon="12.15581">
        <ele>1622.36</ele>
        <time>2017-03-03T11:12:56Z</time>
      </trkpt>
      <trkpt lat="46.67053" lon="12.15577">
        <ele>1622.36</ele>
        <time>2017-03-03T11:12:57Z</time>
      </trkpt>
      <trkpt lat="46.67053" lon="12.15572">
        <ele>1622.36</ele>
        <time>2017-03-03T11:12:58Z</time>
      </trkpt>
      <trkpt lat="46.67053" lon="12.15566">
        <ele>1622.36</ele>
        <time>2017-03-03T11:12:59Z</time>
      </trkpt>
      <trkpt lat="46.67054" lon="12.1556">
        <ele>1620.92</ele>
        <time>2017-03-03T11:13:00Z</time>
      </trkpt>
      <trkpt lat="46.67056" lon="12.15553">
        <ele>1619.96</ele>
        <time>2017-03-03T11:13:01Z</time>
      </trkpt>
      <trkpt lat="46.67059" lon="12.15547">
        <ele>1619</ele>
        <time>2017-03-03T11:13:02Z</time>
      </trkpt>
      <trkpt lat="46.67063" lon="12.15542">
        <ele>1618.52</ele>
        <time>2017-03-03T11:13:03Z</time>
      </trkpt>
      <trkpt lat="46.67068" lon="12.15538">
        <ele>1617.56</ele>
        <time>2017-03-03T11:13:04Z</time>
      </trkpt>
      <trkpt lat="46.67072" lon="12.15534">
        <ele>1616.59</ele>
        <time>2017-03-03T11:13:05Z</time>
      </trkpt>
      <trkpt lat="46.67077" lon="12.15532">
        <ele>1616.59</ele>
        <time>2017-03-03T11:13:06Z</time>
      </trkpt>
      <trkpt lat="46.671" lon="12.1553">
        <ele>1615.15</ele>
        <time>2017-03-03T11:13:12Z</time>
      </trkpt>
      <trkpt lat="46.67104" lon="12.15527">
        <ele>1614.67</ele>
        <time>2017-03-03T11:13:13Z</time>
      </trkpt>
      <trkpt lat="46.67113" lon="12.15519">
        <ele>1613.71</ele>
        <time>2017-03-03T11:13:15Z</time>
      </trkpt>
      <trkpt lat="46.67125" lon="12.15502">
        <ele>1611.31</ele>
        <time>2017-03-03T11:13:18Z</time>
      </trkpt>
      <trkpt lat="46.67136" lon="12.15483">
        <ele>1609.38</ele>
        <time>2017-03-03T11:13:21Z</time>
      </trkpt>
      <trkpt lat="46.67139" lon="12.15476">
        <ele>1608.42</ele>
        <time>2017-03-03T11:13:22Z</time>
      </trkpt>
      <trkpt lat="46.67142" lon="12.15471">
        <ele>1607.46</ele>
        <time>2017-03-03T11:13:23Z</time>
      </trkpt>
      <trkpt lat="46.67154" lon="12.15443">
        <ele>1603.62</ele>
        <time>2017-03-03T11:13:27Z</time>
      </trkpt>
      <trkpt lat="46.6716" lon="12.15427">
        <ele>1602.17</ele>
        <time>2017-03-03T11:13:29Z</time>
      </trkpt>
      <trkpt lat="46.67163" lon="12.15419">
        <ele>1600.25</ele>
        <time>2017-03-03T11:13:30Z</time>
      </trkpt>
      <trkpt lat="46.67171" lon="12.15394">
        <ele>1597.37</ele>
        <time>2017-03-03T11:13:33Z</time>
      </trkpt>
      <trkpt lat="46.67178" lon="12.15372">
        <ele>1594</ele>
        <time>2017-03-03T11:13:36Z</time>
      </trkpt>
      <trkpt lat="46.67181" lon="12.15364">
        <ele>1593.04</ele>
        <time>2017-03-03T11:13:37Z</time>
      </trkpt>
      <trkpt lat="46.67183" lon="12.1534">
        <ele>1589.68</ele>
        <time>2017-03-03T11:13:40Z</time>
      </trkpt>
      <trkpt lat="46.67182" lon="12.15332">
        <ele>1587.75</ele>
        <time>2017-03-03T11:13:41Z</time>
      </trkpt>
      <trkpt lat="46.67181" lon="12.15324">
        <ele>1587.27</ele>
        <time>2017-03-03T11:13:42Z</time>
      </trkpt>
      <trkpt lat="46.67179" lon="12.15316">
        <ele>1585.83</ele>
        <time>2017-03-03T11:13:43Z</time>
      </trkpt>
      <trkpt lat="46.67176" lon="12.15308">
        <ele>1584.87</ele>
        <time>2017-03-03T11:13:44Z</time>
      </trkpt>
      <trkpt lat="46.67172" lon="12.153">
        <ele>1583.91</ele>
        <time>2017-03-03T11:13:45Z</time>
      </trkpt>
      <trkpt lat="46.67167" lon="12.15293">
        <ele>1582.95</ele>
        <time>2017-03-03T11:13:46Z</time>
      </trkpt>
      <trkpt lat="46.67162" lon="12.15287">
        <ele>1581.51</ele>
        <time>2017-03-03T11:13:47Z</time>
      </trkpt>
      <trkpt lat="46.67158" lon="12.1528">
        <ele>1580.06</ele>
        <time>2017-03-03T11:13:48Z</time>
      </trkpt>
      <trkpt lat="46.67146" lon="12.15256">
        <ele>1575.74</ele>
        <time>2017-03-03T11:13:52Z</time>
      </trkpt>
      <trkpt lat="46.67152" lon="12.15235">
        <ele>1573.82</ele>
        <time>2017-03-03T11:13:54Z</time>
      </trkpt>
      <trkpt lat="46.67158" lon="12.15223">
        <ele>1572.37</ele>
        <time>2017-03-03T11:13:55Z</time>
      </trkpt>
      <trkpt lat="46.67161" lon="12.15212">
        <ele>1570.93</ele>
        <time>2017-03-03T11:13:56Z</time>
      </trkpt>
      <trkpt lat="46.67165" lon="12.15202">
        <ele>1570.45</ele>
        <time>2017-03-03T11:13:57Z</time>
      </trkpt>
      <trkpt lat="46.67167" lon="12.15193">
        <ele>1569.49</ele>
        <time>2017-03-03T11:13:58Z</time>
      </trkpt>
      <trkpt lat="46.67169" lon="12.15184">
        <ele>1568.05</ele>
        <time>2017-03-03T11:13:59Z</time>
      </trkpt>
      <trkpt lat="46.67171" lon="12.15176">
        <ele>1567.09</ele>
        <time>2017-03-03T11:14:00Z</time>
      </trkpt>
      <trkpt lat="46.67175" lon="12.15156">
        <ele>1563.72</ele>
        <time>2017-03-03T11:14:03Z</time>
      </trkpt>
      <trkpt lat="46.67175" lon="12.15149">
        <ele>1562.76</ele>
        <time>2017-03-03T11:14:05Z</time>
      </trkpt>
      <trkpt lat="46.67176" lon="12.15144">
        <ele>1562.28</ele>
        <time>2017-03-03T11:14:15Z</time>
      </trkpt>
      <trkpt lat="46.67176" lon="12.15141">
        <ele>1562.28</ele>
        <time>2017-03-03T11:14:25Z</time>
      </trkpt>
      <trkpt lat="46.67177" lon="12.15138">
        <ele>1561.8</ele>
        <time>2017-03-03T11:14:26Z</time>
      </trkpt>
      <trkpt lat="46.67179" lon="12.15133">
        <ele>1561.32</ele>
        <time>2017-03-03T11:14:27Z</time>
      </trkpt>
      <trkpt lat="46.67182" lon="12.15127">
        <ele>1560.84</ele>
        <time>2017-03-03T11:14:28Z</time>
      </trkpt>
      <trkpt lat="46.67185" lon="12.15121">
        <ele>1560.36</ele>
        <time>2017-03-03T11:14:29Z</time>
      </trkpt>
      <trkpt lat="46.67187" lon="12.15113">
        <ele>1560.36</ele>
        <time>2017-03-03T11:14:30Z</time>
      </trkpt>
      <trkpt lat="46.67197" lon="12.15082">
        <ele>1556.99</ele>
        <time>2017-03-03T11:14:34Z</time>
      </trkpt>
      <trkpt lat="46.672" lon="12.15075">
        <ele>1556.99</ele>
        <time>2017-03-03T11:14:35Z</time>
      </trkpt>
      <trkpt lat="46.67209" lon="12.15056">
        <ele>1554.59</ele>
        <time>2017-03-03T11:14:38Z</time>
      </trkpt>
      <trkpt lat="46.67212" lon="12.1505">
        <ele>1553.63</ele>
        <time>2017-03-03T11:14:39Z</time>
      </trkpt>
      <trkpt lat="46.67219" lon="12.15039">
        <ele>1552.67</ele>
        <time>2017-03-03T11:14:41Z</time>
      </trkpt>
      <trkpt lat="46.67238" lon="12.15007">
        <ele>1549.3</ele>
        <time>2017-03-03T11:14:46Z</time>
      </trkpt>
      <trkpt lat="46.67252" lon="12.1498">
        <ele>1546.42</ele>
        <time>2017-03-03T11:14:50Z</time>
      </trkpt>
      <trkpt lat="46.67265" lon="12.14953">
        <ele>1543.53</ele>
        <time>2017-03-03T11:14:54Z</time>
      </trkpt>
      <trkpt lat="46.67272" lon="12.1494">
        <ele>1542.09</ele>
        <time>2017-03-03T11:14:56Z</time>
      </trkpt>
      <trkpt lat="46.67275" lon="12.14935">
        <ele>1541.13</ele>
        <time>2017-03-03T11:14:57Z</time>
      </trkpt>
      <trkpt lat="46.67283" lon="12.14923">
        <ele>1538.25</ele>
        <time>2017-03-03T11:15:00Z</time>
      </trkpt>
      <trkpt lat="46.67284" lon="12.14921">
        <ele>1538.25</ele>
        <time>2017-03-03T11:15:01Z</time>
      </trkpt>
      <trkpt lat="46.67288" lon="12.14921">
        <ele>1537.77</ele>
        <time>2017-03-03T11:15:04Z</time>
      </trkpt>
      <trkpt lat="46.67289" lon="12.14921">
        <ele>1537.77</ele>
        <time>2017-03-03T11:15:18Z</time>
      </trkpt>
      <trkpt lat="46.6729" lon="12.14909">
        <ele>1536.8</ele>
        <time>2017-03-03T11:15:33Z</time>
      </trkpt>
      <trkpt lat="46.67293" lon="12.14909">
        <ele>1536.8</ele>
        <time>2017-03-03T11:15:47Z</time>
      </trkpt>
      <trkpt lat="46.67297" lon="12.14903">
        <ele>1536.32</ele>
        <time>2017-03-03T11:16:05Z</time>
      </trkpt>
      <trkpt lat="46.67296" lon="12.14901">
        <ele>1536.8</ele>
        <time>2017-03-03T11:16:26Z</time>
      </trkpt>
      <trkpt lat="46.67294" lon="12.14903">
        <ele>1536.32</ele>
        <time>2017-03-03T11:16:49Z</time>
      </trkpt>
      <trkpt lat="46.67293" lon="12.14906">
        <ele>1536.32</ele>
        <time>2017-03-03T11:17:07Z</time>
      </trkpt>
      <trkpt lat="46.67295" lon="12.14907">
        <ele>1536.32</ele>
        <time>2017-03-03T11:17:29Z</time>
      </trkpt>
      <trkpt lat="46.67295" lon="12.14907">
        <ele>1536.32</ele>
        <time>2017-03-03T11:17:49Z</time>
      </trkpt>
      <trkpt lat="46.67297" lon="12.14902">
        <ele>1536.32</ele>
        <time>2017-03-03T11:18:02Z</time>
      </trkpt>
      <trkpt lat="46.67295" lon="12.14901">
        <ele>1536.32</ele>
        <time>2017-03-03T11:18:32Z</time>
      </trkpt>
      <trkpt lat="46.67296" lon="12.14902">
        <ele>1535.84</ele>
        <time>2017-03-03T11:18:50Z</time>
      </trkpt>
      <trkpt lat="46.67295" lon="12.14899">
        <ele>1535.84</ele>
        <time>2017-03-03T11:19:11Z</time>
      </trkpt>
      <trkpt lat="46.67295" lon="12.14899">
        <ele>1535.84</ele>
        <time>2017-03-03T11:19:35Z</time>
      </trkpt>
      <trkpt lat="46.67293" lon="12.14895">
        <ele>1536.32</ele>
        <time>2017-03-03T11:19:55Z</time>
      </trkpt>
      <trkpt lat="46.67295" lon="12.14894">
        <ele>1536.8</ele>
        <time>2017-03-03T11:19:56Z</time>
      </trkpt>
      <trkpt lat="46.67297" lon="12.14892">
        <ele>1536.8</ele>
        <time>2017-03-03T11:19:57Z</time>
      </trkpt>
      <trkpt lat="46.67302" lon="12.14885">
        <ele>1536.32</ele>
        <time>2017-03-03T11:19:59Z</time>
      </trkpt>
      <trkpt lat="46.67314" lon="12.14873">
        <ele>1534.4</ele>
        <time>2017-03-03T11:20:02Z</time>
      </trkpt>
      <trkpt lat="46.67321" lon="12.14862">
        <ele>1533.44</ele>
        <time>2017-03-03T11:20:04Z</time>
      </trkpt>
      <trkpt lat="46.67344" lon="12.14817">
        <ele>1530.08</ele>
        <time>2017-03-03T11:20:10Z</time>
      </trkpt>
      <trkpt lat="46.67348" lon="12.1481">
        <ele>1529.59</ele>
        <time>2017-03-03T11:20:11Z</time>
      </trkpt>
      <trkpt lat="46.67362" lon="12.14794">
        <ele>1527.67</ele>
        <time>2017-03-03T11:20:14Z</time>
      </trkpt>
      <trkpt lat="46.67396" lon="12.14783">
        <ele>1524.79</ele>
        <time>2017-03-03T11:20:21Z</time>
      </trkpt>
      <trkpt lat="46.67459" lon="12.14802">
        <ele>1521.9</ele>
        <time>2017-03-03T11:20:38Z</time>
      </trkpt>
      <trkpt lat="46.67515" lon="12.14824">
        <ele>1518.54</ele>
        <time>2017-03-03T11:20:55Z</time>
      </trkpt>
      <trkpt lat="46.67535" lon="12.14829">
        <ele>1517.58</ele>
        <time>2017-03-03T11:21:07Z</time>
      </trkpt>
      <trkpt lat="46.67548" lon="12.14828">
        <ele>1516.62</ele>
        <time>2017-03-03T11:21:25Z</time>
      </trkpt>
      <trkpt lat="46.67552" lon="12.14834">
        <ele>1516.14</ele>
        <time>2017-03-03T11:21:42Z</time>
      </trkpt>
      <trkpt lat="46.67564" lon="12.14835">
        <ele>1516.14</ele>
        <time>2017-03-03T11:22:00Z</time>
      </trkpt>
      <trkpt lat="46.67589" lon="12.14831">
        <ele>1515.18</ele>
        <time>2017-03-03T11:22:17Z</time>
      </trkpt>
      <trkpt lat="46.67617" lon="12.14831">
        <ele>1513.73</ele>
        <time>2017-03-03T11:22:35Z</time>
      </trkpt>
      <trkpt lat="46.67643" lon="12.14835">
        <ele>1512.77</ele>
        <time>2017-03-03T11:22:54Z</time>
      </trkpt>
      <trkpt lat="46.67651" lon="12.14839">
        <ele>1512.29</ele>
        <time>2017-03-03T11:23:10Z</time>
      </trkpt>
      <trkpt lat="46.67669" lon="12.14845">
        <ele>1510.85</ele>
        <time>2017-03-03T11:23:24Z</time>
      </trkpt>
      <trkpt lat="46.67673" lon="12.14845">
        <ele>1510.85</ele>
        <time>2017-03-03T11:23:36Z</time>
      </trkpt>
      <trkpt lat="46.67672" lon="12.14844">
        <ele>1510.85</ele>
        <time>2017-03-03T11:23:51Z</time>
      </trkpt>
      <trkpt lat="46.67677" lon="12.14844">
        <ele>1510.85</ele>
        <time>2017-03-03T11:24:05Z</time>
      </trkpt>
      <trkpt lat="46.67681" lon="12.14844">
        <ele>1510.37</ele>
        <time>2017-03-03T11:24:20Z</time>
      </trkpt>
      <trkpt lat="46.67678" lon="12.14847">
        <ele>1509.41</ele>
        <time>2017-03-03T11:24:52Z</time>
      </trkpt>
      <trkpt lat="46.6768" lon="12.14842">
        <ele>1509.41</ele>
        <time>2017-03-03T11:25:22Z</time>
      </trkpt>
      <trkpt lat="46.67679" lon="12.14842">
        <ele>1509.89</ele>
        <time>2017-03-03T11:25:46Z</time>
      </trkpt>
      <trkpt lat="46.67677" lon="12.1484">
        <ele>1509.89</ele>
        <time>2017-03-03T11:25:57Z</time>
      </trkpt>
      <trkpt lat="46.67677" lon="12.1484">
        <ele>1506.04</ele>
        <time>2017-03-03T11:25:59Z</time>
      </trkpt>
      <trkpt lat="46.67677" lon="12.1484">
        <ele>1508.45</ele>
        <time>2017-03-03T11:26:00Z</time>
      </trkpt>
      <trkpt lat="46.67677" lon="12.14841">
        <ele>1514.21</ele>
        <time>2017-03-03T11:26:01Z</time>
      </trkpt>
      <trkpt lat="46.67677" lon="12.14842">
        <ele>1512.29</ele>
        <time>2017-03-03T11:26:02Z</time>
      </trkpt>
      <trkpt lat="46.6768" lon="12.14838">
        <ele>1508.93</ele>
        <time>2017-03-03T11:26:13Z</time>
      </trkpt>
      <trkpt lat="46.67672" lon="12.14834">
        <ele>1510.37</ele>
        <time>2017-03-03T11:26:30Z</time>
      </trkpt>
      <trkpt lat="46.67668" lon="12.14834">
        <ele>1510.37</ele>
        <time>2017-03-03T11:26:37Z</time>
      </trkpt>
    </trkseg>
  </trk>
</gpx>